Observation data for Weinert on 07/20/2019      Previous  Date       Current Mesonet Observations  Soil Data  Daily Summary Page  Observations in Plain Language
KWE1 200500Z 17016KT 30/18 A2989 RMK A01 T02980177  RH  048%=      5-min Rain = 0
KWE1 200501Z 17014KT 30/18 A2989 RMK A01 T02980176  RH  048%=      5-min Rain = 0
KWE1 200502Z 17016KT 30/18 A2989 RMK A01 T02980177  RH  048%=      5-min Rain = 0
KWE1 200503Z 17019KT 30/18 A2989 RMK A01 T02970177  RH  048%=      5-min Rain = 0
KWE1 200504Z 17016KT 30/18 A2989 RMK A01 T02980177  RH  048%=      5-min Rain = 0
KWE1 200505Z 17016KT 30/18 A2989 RMK A01 T02980177  RH  048%=      5-min Rain = 0
KWE1 200506Z 17016KT 30/18 A2989 RMK A01 T02980177  RH  048%=      5-min Rain = 0
KWE1 200507Z 16018KT 30/18 A2988 RMK A01 T02980177  RH  048%=      5-min Rain = 0
KWE1 200508Z 17017KT 30/18 A2989 RMK A01 T02980177  RH  048%=      5-min Rain = 0
KWE1 200509Z 17012KT 30/18 A2989 RMK A01 T02980177  RH  048%=      5-min Rain = 0
KWE1 200510Z 16014KT 30/18 A2989 RMK A01 T02980177  RH  048%=      5-min Rain = 0
KWE1 200511Z 17014G19KT 30/18 A2989 RMK A01 T02980177  RH  048%=      5-min Rain = 0
KWE1 200512Z 16016KT 30/18 A2989 RMK A01 T02970177  RH  048%=      5-min Rain = 0
KWE1 200513Z 17014KT 30/18 A2989 RMK A01 T02970177  RH  049%=      5-min Rain = 0
KWE1 200514Z 17014G19KT 30/18 A2989 RMK A01 T02970177  RH  049%=      5-min Rain = 0
KWE1 200515Z 17017KT 30/18 A2989 RMK A01 T02970177  RH  049%=      5-min Rain = 0
KWE1 200516Z 17017KT 30/18 A2989 RMK A01 T02970178  RH  049%=      5-min Rain = 0
KWE1 200517Z 16017G24KT 30/18 A2989 RMK A01 T02970178  RH  049%=      5-min Rain = 0
KWE1 200518Z 16015KT 30/18 A2989 RMK A01 T02970177  RH  049%=      5-min Rain = 0
KWE1 200519Z 17015KT 30/18 A2989 RMK A01 T02970177  RH  049%=      5-min Rain = 0
KWE1 200520Z 17016G21KT 30/18 A2989 RMK A01 T02970178  RH  049%=      5-min Rain = 0
KWE1 200521Z 17017KT 30/18 A2989 RMK A01 T02960177  RH  049%=      5-min Rain = 0
KWE1 200522Z 17016KT 30/18 A2989 RMK A01 T02970178  RH  049%=      5-min Rain = 0
KWE1 200523Z 17017KT 30/18 A2989 RMK A01 T02970178  RH  049%=      5-min Rain = 0
KWE1 200524Z 17014KT 30/18 A2989 RMK A01 T02970178  RH  049%=      5-min Rain = 0
KWE1 200525Z 17016KT 30/18 A2989 RMK A01 T02960178  RH  049%=      5-min Rain = 0
KWE1 200526Z 17017KT 30/18 A2989 RMK A01 T02960178  RH  049%=      5-min Rain = 0
KWE1 200527Z 17014KT 30/18 A2989 RMK A01 T02960178  RH  049%=      5-min Rain = 0
KWE1 200528Z 17017G22KT 30/18 A2989 RMK A01 T02960178  RH  049%=      5-min Rain = 0
KWE1 200529Z 17014G19KT 30/18 A2989 RMK A01 T02960178  RH  049%=      5-min Rain = 0
KWE1 200530Z 17014KT 30/18 A2989 RMK A01 T02960178  RH  049%=      5-min Rain = 0
KWE1 200531Z 17015KT 30/18 A2989 RMK A01 T02950178  RH  049%=      5-min Rain = 0
KWE1 200532Z 17015KT 30/18 A2989 RMK A01 T02950178  RH  049%=      5-min Rain = 0
KWE1 200533Z 17015KT 30/18 A2989 RMK A01 T02950178  RH  050%=      5-min Rain = 0
KWE1 200534Z 17014KT 30/18 A2989 RMK A01 T02950178  RH  050%=      5-min Rain = 0
KWE1 200535Z 17016KT 30/18 A2988 RMK A01 T02950178  RH  050%=      5-min Rain = 0
KWE1 200536Z 17016KT 29/18 A2988 RMK A01 T02940178  RH  050%=      5-min Rain = 0
KWE1 200537Z 17013KT 29/18 A2988 RMK A01 T02940178  RH  050%=      5-min Rain = 0
KWE1 200538Z 17015KT 29/18 A2988 RMK A01 T02940178  RH  050%=      5-min Rain = 0
KWE1 200539Z 17015KT 29/18 A2988 RMK A01 T02940179  RH  050%=      5-min Rain = 0
KWE1 200540Z 17014KT 29/18 A2988 RMK A01 T02940179  RH  050%=      5-min Rain = 0
KWE1 200541Z 17016KT 29/18 A2988 RMK A01 T02930179  RH  050%=      5-min Rain = 0
KWE1 200542Z 17016KT 29/18 A2988 RMK A01 T02930178  RH  050%=      5-min Rain = 0
KWE1 200543Z 17015KT 29/18 A2988 RMK A01 T02930178  RH  050%=      5-min Rain = 0
KWE1 200544Z 17015KT 29/18 A2988 RMK A01 T02930178  RH  050%=      5-min Rain = 0
KWE1 200545Z 17017KT 29/18 A2988 RMK A01 T02930179  RH  050%=      5-min Rain = 0
KWE1 200546Z 17016KT 29/18 A2988 RMK A01 T02930178  RH  050%=      5-min Rain = 0
KWE1 200547Z 17014KT 29/18 A2988 RMK A01 T02930179  RH  050%=      5-min Rain = 0
KWE1 200548Z 17015KT 29/18 A2988 RMK A01 T02930179  RH  050%=      5-min Rain = 0
KWE1 200549Z 18014KT 29/18 A2988 RMK A01 T02930179  RH  050%=      5-min Rain = 0
KWE1 200550Z 17014KT 29/18 A2988 RMK A01 T02930179  RH  050%=      5-min Rain = 0
KWE1 200551Z 18016KT 29/18 A2988 RMK A01 T02920179  RH  050%=      5-min Rain = 0
KWE1 200552Z 17014KT 29/18 A2988 RMK A01 T02930179  RH  050%=      5-min Rain = 0
KWE1 200553Z 17018KT 29/18 A2988 RMK A01 T02920179  RH  051%=      5-min Rain = 0
KWE1 200554Z 18018G23KT 29/18 A2988 RMK A01 T02920179  RH  050%=      5-min Rain = 0
KWE1 200555Z 17014KT 29/18 A2988 RMK A01 T02930179  RH  050%=      5-min Rain = 0
KWE1 200556Z 17016G22KT 29/18 A2988 RMK A01 T02930179  RH  050%=      5-min Rain = 0
KWE1 200557Z 17015KT 29/18 A2988 RMK A01 T02930179  RH  050%=      5-min Rain = 0
KWE1 200558Z 18015KT 29/18 A2988 RMK A01 T02930180  RH  051%=      5-min Rain = 0
KWE1 200559Z 17015G21KT 29/18 A2988 RMK A01 T02920179  RH  051%=      5-min Rain = 0
KWE1 200600Z 18015G20KT 29/18 A2988 RMK A01 T02920179  RH  051%=      5-min Rain = 0
KWE1 200601Z 18016KT 29/18 A2988 RMK A01 T02920180  RH  051%=      5-min Rain = 0
KWE1 200602Z 17016KT 29/18 A2988 RMK A01 T02920180  RH  051%=      5-min Rain = 0
KWE1 200603Z 17017KT 29/18 A2988 RMK A01 T02920179  RH  051%=      5-min Rain = 0
KWE1 200604Z 18015KT 29/18 A2988 RMK A01 T02920180  RH  051%=      5-min Rain = 0
KWE1 200605Z 17016KT 29/18 A2988 RMK A01 T02920180  RH  051%=      5-min Rain = 0
KWE1 200606Z 18017KT 29/18 A2988 RMK A01 T02920180  RH  051%=      5-min Rain = 0
KWE1 200607Z 17013KT 29/18 A2988 RMK A01 T02920180  RH  051%=      5-min Rain = 0
KWE1 200608Z 18015KT 29/18 A2988 RMK A01 T02920180  RH  051%=      5-min Rain = 0
KWE1 200609Z 17018KT 29/18 A2988 RMK A01 T02910180  RH  051%=      5-min Rain = 0
KWE1 200610Z 18016KT 29/18 A2988 RMK A01 T02920180  RH  051%=      5-min Rain = 0
KWE1 200611Z 18016KT 29/18 A2988 RMK A01 T02920180  RH  051%=      5-min Rain = 0
KWE1 200612Z 17017KT 29/18 A2988 RMK A01 T02920180  RH  051%=      5-min Rain = 0
KWE1 200613Z 18017KT 29/18 A2988 RMK A01 T02920180  RH  051%=      5-min Rain = 0
KWE1 200614Z 17013KT 29/18 A2988 RMK A01 T02920180  RH  051%=      5-min Rain = 0
KWE1 200615Z 18013KT 29/18 A2988 RMK A01 T02910180  RH  051%=      5-min Rain = 0
KWE1 200616Z 18018KT 29/18 A2988 RMK A01 T02910181  RH  052%=      5-min Rain = 0
KWE1 200617Z 18013KT 29/18 A2988 RMK A01 T02900181  RH  052%=      5-min Rain = 0
KWE1 200618Z 18013KT 29/18 A2988 RMK A01 T02900181  RH  052%=      5-min Rain = 0
KWE1 200619Z 17016KT 29/18 A2988 RMK A01 T02900181  RH  052%=      5-min Rain = 0
KWE1 200620Z 18014KT 29/18 A2988 RMK A01 T02890181  RH  052%=      5-min Rain = 0
KWE1 200621Z 18015KT 29/18 A2988 RMK A01 T02890181  RH  052%=      5-min Rain = 0
KWE1 200622Z 18014KT 29/18 A2988 RMK A01 T02890181  RH  052%=      5-min Rain = 0
KWE1 200623Z 18013G18KT 29/18 A2988 RMK A01 T02890181  RH  052%=      5-min Rain = 0
KWE1 200624Z 18013KT 29/18 A2988 RMK A01 T02890181  RH  052%=      5-min Rain = 0
KWE1 200625Z 18013KT 29/18 A2988 RMK A01 T02890181  RH  052%=      5-min Rain = 0
KWE1 200626Z 18011KT 29/18 A2988 RMK A01 T02880181  RH  052%=      5-min Rain = 0
KWE1 200627Z 18012KT 29/18 A2988 RMK A01 T02880181  RH  053%=      5-min Rain = 0
KWE1 200628Z 17011KT 29/18 A2988 RMK A01 T02870181  RH  053%=      5-min Rain = 0
KWE1 200629Z 18012KT 29/18 A2988 RMK A01 T02870181  RH  053%=      5-min Rain = 0
KWE1 200630Z 18013G19KT 29/18 A2988 RMK A01 T02870181  RH  053%=      5-min Rain = 0
KWE1 200631Z 17014G19KT 29/18 A2988 RMK A01 T02870181  RH  053%=      5-min Rain = 0
KWE1 200632Z 18013G18KT 29/18 A2988 RMK A01 T02880181  RH  052%=      5-min Rain = 0
KWE1 200633Z 18014KT 29/18 A2988 RMK A01 T02890181  RH  052%=      5-min Rain = 0
KWE1 200634Z 18013KT 29/18 A2988 RMK A01 T02890181  RH  052%=      5-min Rain = 0
KWE1 200635Z 18015KT 29/18 A2988 RMK A01 T02890181  RH  052%=      5-min Rain = 0
KWE1 200636Z 18014KT 29/18 A2988 RMK A01 T02890181  RH  052%=      5-min Rain = 0
KWE1 200637Z 18014G19KT 29/18 A2988 RMK A01 T02900182  RH  052%=      5-min Rain = 0
KWE1 200638Z 18011KT 29/18 A2988 RMK A01 T02900182  RH  052%=      5-min Rain = 0
KWE1 200639Z 18015KT 29/18 A2988 RMK A01 T02900181  RH  052%=      5-min Rain = 0
KWE1 200640Z 18014KT 29/18 A2988 RMK A01 T02900182  RH  052%=      5-min Rain = 0
KWE1 200641Z 18014KT 29/18 A2988 RMK A01 T02900181  RH  052%=      5-min Rain = 0
KWE1 200642Z 18015KT 29/18 A2988 RMK A01 T02900182  RH  052%=      5-min Rain = 0
KWE1 200643Z 18014G19KT 29/18 A2988 RMK A01 T02900182  RH  052%=      5-min Rain = 0
KWE1 200644Z 18014KT 29/18 A2988 RMK A01 T02900182  RH  052%=      5-min Rain = 0
KWE1 200645Z 19015KT 29/18 A2988 RMK A01 T02900182  RH  052%=      5-min Rain = 0
KWE1 200646Z 18013KT 29/18 A2988 RMK A01 T02900182  RH  052%=      5-min Rain = 0
KWE1 200647Z 18016KT 29/18 A2988 RMK A01 T02900182  RH  052%=      5-min Rain = 0
KWE1 200648Z 18016KT 29/18 A2988 RMK A01 T02900182  RH  052%=      5-min Rain = 0
KWE1 200649Z 18018G24KT 29/18 A2988 RMK A01 T02910182  RH  052%=      5-min Rain = 0
KWE1 200650Z 18018KT 29/18 A2988 RMK A01 T02910182  RH  052%=      5-min Rain = 0
KWE1 200651Z 18016KT 29/18 A2988 RMK A01 T02920182  RH  052%=      5-min Rain = 0
KWE1 200652Z 18017G22KT 29/18 A2988 RMK A01 T02920182  RH  052%=      5-min Rain = 0
KWE1 200653Z 18018KT 29/18 A2988 RMK A01 T02910182  RH  052%=      5-min Rain = 0
KWE1 200654Z 18017KT 29/18 A2988 RMK A01 T02920182  RH  051%=      5-min Rain = 0
KWE1 200655Z 18014KT 29/18 A2988 RMK A01 T02920182  RH  052%=      5-min Rain = 0
KWE1 200656Z 18015KT 29/18 A2988 RMK A01 T02910182  RH  052%=      5-min Rain = 0
KWE1 200657Z 19018KT 29/18 A2988 RMK A01 T02910182  RH  052%=      5-min Rain = 0
KWE1 200658Z 19018KT 29/18 A2988 RMK A01 T02910182  RH  052%=      5-min Rain = 0
KWE1 200659Z 18017KT 29/18 A2988 RMK A01 T02920182  RH  052%=      5-min Rain = 0
KWE1 200700Z 18018KT 29/18 A2988 RMK A01 T02920182  RH  052%=      5-min Rain = 0
KWE1 200701Z 18016KT 29/18 A2988 RMK A01 T02920182  RH  052%=      5-min Rain = 0
KWE1 200702Z 18015G21KT 29/18 A2988 RMK A01 T02920182  RH  052%=      5-min Rain = 0
KWE1 200703Z 18018G23KT 29/18 A2988 RMK A01 T02910183  RH  052%=      5-min Rain = 0
KWE1 200704Z 18021KT 29/18 A2988 RMK A01 T02910182  RH  052%=      5-min Rain = 0
KWE1 200705Z 18016KT 29/18 A2988 RMK A01 T02910182  RH  052%=      5-min Rain = 0
KWE1 200706Z 18018KT 29/18 A2988 RMK A01 T02910182  RH  052%=      5-min Rain = 0
KWE1 200707Z 18018G24KT 29/18 A2988 RMK A01 T02910182  RH  052%=      5-min Rain = 0
KWE1 200708Z 18017KT 29/18 A2988 RMK A01 T02910182  RH  052%=      5-min Rain = 0
KWE1 200709Z 19017KT 29/18 A2988 RMK A01 T02910183  RH  052%=      5-min Rain = 0
KWE1 200710Z 18020KT 29/18 A2988 RMK A01 T02900183  RH  052%=      5-min Rain = 0
KWE1 200711Z 18020KT 29/18 A2988 RMK A01 T02900182  RH  052%=      5-min Rain = 0
KWE1 200712Z 18022KT 29/18 A2988 RMK A01 T02900182  RH  052%=      5-min Rain = 0
KWE1 200713Z 18018G23KT 29/18 A2988 RMK A01 T02910182  RH  052%=      5-min Rain = 0
KWE1 200714Z 19019KT 29/18 A2988 RMK A01 T02910182  RH  052%=      5-min Rain = 0
KWE1 200715Z 18016KT 29/18 A2988 RMK A01 T02900182  RH  052%=      5-min Rain = 0
KWE1 200716Z 18020KT 29/18 A2988 RMK A01 T02900182  RH  052%=      5-min Rain = 0
KWE1 200717Z 18019KT 29/18 A2988 RMK A01 T02900183  RH  052%=      5-min Rain = 0
KWE1 200718Z 18016G22KT 29/18 A2988 RMK A01 T02900183  RH  052%=      5-min Rain = 0
KWE1 200719Z 18019KT 29/18 A2988 RMK A01 T02890182  RH  052%=      5-min Rain = 0
KWE1 200720Z 18020G26KT 29/18 A2988 RMK A01 T02890182  RH  052%=      5-min Rain = 0
KWE1 200721Z 18017G22KT 29/18 A2988 RMK A01 T02890182  RH  052%=      5-min Rain = 0
KWE1 200722Z 18016G22KT 29/18 A2988 RMK A01 T02890182  RH  052%=      5-min Rain = 0
KWE1 200723Z 18020KT 29/18 A2988 RMK A01 T02890183  RH  052%=      5-min Rain = 0
KWE1 200724Z 18019KT 29/18 A2988 RMK A01 T02900183  RH  052%=      5-min Rain = 0
KWE1 200725Z 18017KT 29/18 A2988 RMK A01 T02890182  RH  052%=      5-min Rain = 0
KWE1 200726Z 19018KT 29/18 A2988 RMK A01 T02890183  RH  053%=      5-min Rain = 0
KWE1 200727Z 18019KT 29/18 A2988 RMK A01 T02890183  RH  053%=      5-min Rain = 0
KWE1 200728Z 18019G24KT 29/18 A2988 RMK A01 T02890183  RH  053%=      5-min Rain = 0
KWE1 200729Z 18020KT 29/18 A2988 RMK A01 T02880182  RH  053%=      5-min Rain = 0
KWE1 200730Z 18017KT 29/18 A2988 RMK A01 T02880182  RH  053%=      5-min Rain = 0
KWE1 200731Z 18017KT 29/18 A2988 RMK A01 T02890183  RH  053%=      5-min Rain = 0
KWE1 200732Z 19019KT 29/18 A2988 RMK A01 T02880183  RH  053%=      5-min Rain = 0
KWE1 200733Z 19014KT 29/18 A2988 RMK A01 T02880183  RH  053%=      5-min Rain = 0
KWE1 200734Z 19018G23KT 29/18 A2988 RMK A01 T02880183  RH  053%=      5-min Rain = 0
KWE1 200735Z 18017KT 29/18 A2988 RMK A01 T02870183  RH  053%=      5-min Rain = 0
KWE1 200736Z 19014KT 29/18 A2988 RMK A01 T02870183  RH  053%=      5-min Rain = 0
KWE1 200737Z 19017KT 29/18 A2988 RMK A01 T02870183  RH  053%=      5-min Rain = 0
KWE1 200738Z 19016KT 29/18 A2988 RMK A01 T02860183  RH  054%=      5-min Rain = 0
KWE1 200739Z 18016KT 29/18 A2988 RMK A01 T02860183  RH  054%=      5-min Rain = 0
KWE1 200740Z 18016KT 29/18 A2988 RMK A01 T02860183  RH  054%=      5-min Rain = 0
KWE1 200741Z 18017KT 29/18 A2988 RMK A01 T02860183  RH  054%=      5-min Rain = 0
KWE1 200742Z 19015KT 29/18 A2988 RMK A01 T02850183  RH  054%=      5-min Rain = 0
KWE1 200743Z 18015KT 29/18 A2988 RMK A01 T02850183  RH  054%=      5-min Rain = 0
KWE1 200744Z 19019KT 29/18 A2988 RMK A01 T02850183  RH  054%=      5-min Rain = 0
KWE1 200745Z 18017KT 28/18 A2988 RMK A01 T02840183  RH  054%=      5-min Rain = 0
KWE1 200746Z 18016KT 28/18 A2988 RMK A01 T02840183  RH  054%=      5-min Rain = 0
KWE1 200747Z 19016KT 28/18 A2988 RMK A01 T02840183  RH  054%=      5-min Rain = 0
KWE1 200748Z 19015KT 29/18 A2988 RMK A01 T02850184  RH  054%=      5-min Rain = 0
KWE1 200749Z 19016KT 28/18 A2988 RMK A01 T02840184  RH  055%=      5-min Rain = 0
KWE1 200750Z 19016KT 28/18 A2988 RMK A01 T02840184  RH  055%=      5-min Rain = 0
KWE1 200751Z 18017KT 28/18 A2988 RMK A01 T02840184  RH  055%=      5-min Rain = 0
KWE1 200752Z 18016G23KT 28/18 A2988 RMK A01 T02830184  RH  055%=      5-min Rain = 0
KWE1 200753Z 19017G22KT 28/18 A2988 RMK A01 T02840184  RH  055%=      5-min Rain = 0
KWE1 200754Z 19018KT 28/18 A2988 RMK A01 T02830184  RH  055%=      5-min Rain = 0
KWE1 200755Z 18015KT 28/18 A2988 RMK A01 T02840184  RH  055%=      5-min Rain = 0
KWE1 200756Z 18017G23KT 28/18 A2988 RMK A01 T02840184  RH  055%=      5-min Rain = 0
KWE1 200757Z 18019KT 28/18 A2988 RMK A01 T02830184  RH  055%=      5-min Rain = 0
KWE1 200758Z 19017G22KT 28/18 A2988 RMK A01 T02840184  RH  055%=      5-min Rain = 0
KWE1 200759Z 19016KT 28/18 A2988 RMK A01 T02830184  RH  055%=      5-min Rain = 0
KWE1 200800Z 18015KT 28/18 A2988 RMK A01 T02840184  RH  055%=      5-min Rain = 0
KWE1 200801Z 18016KT 28/18 A2988 RMK A01 T02830184  RH  055%=      5-min Rain = 0
KWE1 200802Z 19016KT 28/19 A2987 RMK A01 T02830185  RH  055%=      5-min Rain = 0
KWE1 200803Z 18016KT 28/18 A2988 RMK A01 T02820184  RH  055%=      5-min Rain = 0
KWE1 200804Z 19014G19KT 28/18 A2987 RMK A01 T02820184  RH  055%=      5-min Rain = 0
KWE1 200805Z 19016KT 28/18 A2987 RMK A01 T02820184  RH  055%=      5-min Rain = 0
KWE1 200806Z 19015KT 28/18 A2987 RMK A01 T02820184  RH  056%=      5-min Rain = 0
KWE1 200807Z 19015KT 28/18 A2987 RMK A01 T02810184  RH  056%=      5-min Rain = 0
KWE1 200808Z 19015KT 28/18 A2987 RMK A01 T02810184  RH  056%=      5-min Rain = 0
KWE1 200809Z 19017KT 28/19 A2987 RMK A01 T02800185  RH  056%=      5-min Rain = 0
KWE1 200810Z 19016KT 28/18 A2987 RMK A01 T02800184  RH  056%=      5-min Rain = 0
KWE1 200811Z 18014KT 28/18 A2987 RMK A01 T02800184  RH  056%=      5-min Rain = 0
KWE1 200812Z 19016KT 28/19 A2987 RMK A01 T02800185  RH  056%=      5-min Rain = 0
KWE1 200813Z 18017KT 28/19 A2987 RMK A01 T02800185  RH  056%=      5-min Rain = 0
KWE1 200814Z 18017KT 28/19 A2987 RMK A01 T02800185  RH  056%=      5-min Rain = 0
KWE1 200815Z 19016KT 28/19 A2987 RMK A01 T02800185  RH  056%=      5-min Rain = 0
KWE1 200816Z 19014G19KT 28/19 A2987 RMK A01 T02800185  RH  056%=      5-min Rain = 0
KWE1 200817Z 19014KT 28/19 A2987 RMK A01 T02800186  RH  056%=      5-min Rain = 0
KWE1 200818Z 18015KT 28/19 A2987 RMK A01 T02790185  RH  057%=      5-min Rain = 0
KWE1 200819Z 19017KT 28/19 A2987 RMK A01 T02790186  RH  057%=      5-min Rain = 0
KWE1 200820Z 19014G19KT 28/19 A2987 RMK A01 T02790186  RH  057%=      5-min Rain = 0
KWE1 200821Z 18014KT 28/19 A2987 RMK A01 T02790186  RH  057%=      5-min Rain = 0
KWE1 200822Z 19017KT 28/19 A2987 RMK A01 T02790186  RH  057%=      5-min Rain = 0
KWE1 200823Z 19016G21KT 28/19 A2987 RMK A01 T02790186  RH  057%=      5-min Rain = 0
KWE1 200824Z 18015G20KT 28/19 A2987 RMK A01 T02790186  RH  057%=      5-min Rain = 0
KWE1 200825Z 19016KT 28/19 A2987 RMK A01 T02790186  RH  057%=      5-min Rain = 0
KWE1 200826Z 19016KT 28/19 A2987 RMK A01 T02790186  RH  057%=      5-min Rain = 0
KWE1 200827Z 19015G20KT 28/19 A2987 RMK A01 T02790186  RH  057%=      5-min Rain = 0
KWE1 200828Z 19012KT 28/19 A2987 RMK A01 T02780186  RH  057%=      5-min Rain = 0
KWE1 200829Z 19015KT 28/19 A2987 RMK A01 T02780187  RH  058%=      5-min Rain = 0
KWE1 200830Z 19013KT 28/19 A2987 RMK A01 T02770186  RH  058%=      5-min Rain = 0
KWE1 200831Z 18018KT 28/19 A2987 RMK A01 T02770187  RH  058%=      5-min Rain = 0
KWE1 200832Z 18016KT 28/19 A2987 RMK A01 T02770187  RH  058%=      5-min Rain = 0
KWE1 200833Z 18015KT 28/19 A2987 RMK A01 T02780187  RH  058%=      5-min Rain = 0
KWE1 200834Z 19018KT 28/19 A2987 RMK A01 T02780187  RH  058%=      5-min Rain = 0
KWE1 200835Z 19015KT 28/19 A2987 RMK A01 T02780187  RH  058%=      5-min Rain = 0
KWE1 200836Z 19015KT 28/19 A2987 RMK A01 T02780187  RH  058%=      5-min Rain = 0
KWE1 200837Z 19015KT 28/19 A2987 RMK A01 T02780188  RH  058%=      5-min Rain = 0
KWE1 200838Z 19014KT 28/19 A2987 RMK A01 T02780187  RH  058%=      5-min Rain = 0
KWE1 200839Z 19016KT 28/19 A2987 RMK A01 T02780188  RH  058%=      5-min Rain = 0
KWE1 200840Z 19015KT 28/19 A2987 RMK A01 T02770188  RH  058%=      5-min Rain = 0
KWE1 200841Z 19016KT 28/19 A2987 RMK A01 T02770188  RH  058%=      5-min Rain = 0
KWE1 200842Z 19017KT 28/19 A2987 RMK A01 T02770188  RH  058%=      5-min Rain = 0
KWE1 200843Z 19013KT 28/19 A2987 RMK A01 T02770188  RH  058%=      5-min Rain = 0
KWE1 200844Z 19014KT 28/19 A2987 RMK A01 T02770188  RH  058%=      5-min Rain = 0
KWE1 200845Z 19017KT 28/19 A2987 RMK A01 T02770188  RH  058%=      5-min Rain = 0
KWE1 200846Z 19016KT 28/19 A2987 RMK A01 T02770189  RH  059%=      5-min Rain = 0
KWE1 200847Z 19015KT 28/19 A2987 RMK A01 T02770189  RH  059%=      5-min Rain = 0
KWE1 200848Z 19015KT 28/19 A2987 RMK A01 T02770189  RH  059%=      5-min Rain = 0
KWE1 200849Z 19013KT 28/19 A2987 RMK A01 T02770189  RH  059%=      5-min Rain = 0
KWE1 200850Z 19014KT 28/19 A2987 RMK A01 T02760189  RH  059%=      5-min Rain = 0
KWE1 200851Z 19016KT 28/19 A2987 RMK A01 T02760189  RH  059%=      5-min Rain = 0
KWE1 200852Z 19016KT 28/19 A2987 RMK A01 T02760189  RH  059%=      5-min Rain = 0
KWE1 200853Z 19016KT 28/19 A2987 RMK A01 T02760189  RH  059%=      5-min Rain = 0
KWE1 200854Z 19015KT 28/19 A2987 RMK A01 T02760189  RH  059%=      5-min Rain = 0
KWE1 200855Z 19014KT 28/19 A2987 RMK A01 T02760189  RH  059%=      5-min Rain = 0
KWE1 200856Z 19015KT 28/19 A2987 RMK A01 T02760189  RH  059%=      5-min Rain = 0
KWE1 200857Z 19018KT 28/19 A2987 RMK A01 T02760190  RH  059%=      5-min Rain = 0
KWE1 200858Z 19013KT 28/19 A2987 RMK A01 T02760190  RH  059%=      5-min Rain = 0
KWE1 200859Z 19014KT 28/19 A2987 RMK A01 T02760190  RH  059%=      5-min Rain = 0
KWE1 200900Z 20014KT 28/19 A2987 RMK A01 T02760190  RH  059%=      5-min Rain = 0
KWE1 200901Z 19013KT 28/19 A2987 RMK A01 T02760190  RH  059%=      5-min Rain = 0
KWE1 200902Z 19015KT 28/19 A2987 RMK A01 T02750190  RH  060%=      5-min Rain = 0
KWE1 200903Z 19015KT 28/19 A2987 RMK A01 T02760190  RH  060%=      5-min Rain = 0
KWE1 200904Z 19015KT 28/19 A2987 RMK A01 T02750190  RH  060%=      5-min Rain = 0
KWE1 200905Z 19015KT 28/19 A2987 RMK A01 T02760191  RH  060%=      5-min Rain = 0
KWE1 200906Z 20015KT 28/19 A2987 RMK A01 T02760191  RH  060%=      5-min Rain = 0
KWE1 200907Z 19015KT 28/19 A2987 RMK A01 T02760191  RH  060%=      5-min Rain = 0
KWE1 200908Z 19014KT 28/19 A2987 RMK A01 T02750191  RH  060%=      5-min Rain = 0
KWE1 200909Z 20016KT 28/19 A2987 RMK A01 T02760191  RH  060%=      5-min Rain = 0
KWE1 200910Z 19015G21KT 28/19 A2987 RMK A01 T02760192  RH  060%=      5-min Rain = 0
KWE1 200911Z 19018KT 28/19 A2987 RMK A01 T02750192  RH  060%=      5-min Rain = 0
KWE1 200912Z 19016G21KT 28/19 A2987 RMK A01 T02760192  RH  060%=      5-min Rain = 0
KWE1 200913Z 19015KT 28/19 A2987 RMK A01 T02760192  RH  060%=      5-min Rain = 0
KWE1 200914Z 20016KT 28/19 A2987 RMK A01 T02760192  RH  060%=      5-min Rain = 0
KWE1 200915Z 20015KT 28/19 A2987 RMK A01 T02760192  RH  060%=      5-min Rain = 0
KWE1 200916Z 19015KT 28/19 A2987 RMK A01 T02760193  RH  060%=      5-min Rain = 0
KWE1 200917Z 20015KT 28/19 A2987 RMK A01 T02750193  RH  061%=      5-min Rain = 0
KWE1 200918Z 20017G22KT 28/19 A2987 RMK A01 T02760193  RH  061%=      5-min Rain = 0
KWE1 200919Z 20015KT 28/19 A2987 RMK A01 T02760193  RH  061%=      5-min Rain = 0
KWE1 200920Z 19017KT 28/19 A2987 RMK A01 T02760193  RH  061%=      5-min Rain = 0
KWE1 200921Z 19016KT 28/19 A2987 RMK A01 T02750193  RH  061%=      5-min Rain = 0
KWE1 200922Z 20015KT 28/19 A2988 RMK A01 T02750194  RH  061%=      5-min Rain = 0
KWE1 200923Z 20015KT 28/19 A2987 RMK A01 T02760194  RH  061%=      5-min Rain = 0
KWE1 200924Z 20015KT 28/19 A2988 RMK A01 T02750194  RH  061%=      5-min Rain = 0
KWE1 200925Z 19013KT 28/19 A2988 RMK A01 T02750194  RH  061%=      5-min Rain = 0
KWE1 200926Z 20012KT 28/19 A2988 RMK A01 T02750194  RH  061%=      5-min Rain = 0
KWE1 200927Z 20013G21KT 27/19 A2988 RMK A01 T02740194  RH  062%=      5-min Rain = 0
KWE1 200928Z 20015KT 27/20 A2988 RMK A01 T02740195  RH  062%=      5-min Rain = 0
KWE1 200929Z 20014KT 27/20 A2987 RMK A01 T02740195  RH  062%=      5-min Rain = 0
KWE1 200930Z 20015KT 27/20 A2987 RMK A01 T02740195  RH  062%=      5-min Rain = 0
KWE1 200931Z 20015KT 27/20 A2987 RMK A01 T02740195  RH  062%=      5-min Rain = 0
KWE1 200932Z 20014KT 27/20 A2987 RMK A01 T02740195  RH  062%=      5-min Rain = 0
KWE1 200933Z 19015KT 27/20 A2987 RMK A01 T02740195  RH  062%=      5-min Rain = 0
KWE1 200934Z 20016KT 27/20 A2987 RMK A01 T02740196  RH  062%=      5-min Rain = 0
KWE1 200935Z 20015KT 27/20 A2987 RMK A01 T02740196  RH  062%=      5-min Rain = 0
KWE1 200936Z 20015G20KT 27/20 A2988 RMK A01 T02740196  RH  062%=      5-min Rain = 0
KWE1 200937Z 20016KT 27/20 A2987 RMK A01 T02740196  RH  063%=      5-min Rain = 0
KWE1 200938Z 20013KT 27/20 A2987 RMK A01 T02730196  RH  063%=      5-min Rain = 0
KWE1 200939Z 19014KT 27/20 A2987 RMK A01 T02730196  RH  063%=      5-min Rain = 0
KWE1 200940Z 20016G21KT 27/20 A2987 RMK A01 T02730197  RH  063%=      5-min Rain = 0
KWE1 200941Z 19015KT 27/20 A2987 RMK A01 T02730197  RH  063%=      5-min Rain = 0
KWE1 200942Z 19014KT 27/20 A2988 RMK A01 T02730196  RH  063%=      5-min Rain = 0
KWE1 200943Z 19016KT 27/20 A2987 RMK A01 T02730197  RH  063%=      5-min Rain = 0
KWE1 200944Z 20015KT 27/20 A2988 RMK A01 T02730197  RH  063%=      5-min Rain = 0
KWE1 200945Z 19015KT 27/20 A2988 RMK A01 T02730197  RH  063%=      5-min Rain = 0
KWE1 200946Z 19014KT 27/20 A2988 RMK A01 T02730197  RH  063%=      5-min Rain = 0
KWE1 200947Z 19015KT 27/20 A2988 RMK A01 T02730198  RH  064%=      5-min Rain = 0
KWE1 200948Z 20014KT 27/20 A2988 RMK A01 T02720198  RH  064%=      5-min Rain = 0
KWE1 200949Z 19018KT 27/20 A2988 RMK A01 T02720198  RH  064%=      5-min Rain = 0
KWE1 200950Z 19014KT 27/20 A2988 RMK A01 T02720198  RH  064%=      5-min Rain = 0
KWE1 200951Z 19017KT 27/20 A2988 RMK A01 T02720198  RH  064%=      5-min Rain = 0
KWE1 200952Z 19014KT 27/20 A2988 RMK A01 T02720198  RH  064%=      5-min Rain = 0
KWE1 200953Z 19014KT 27/20 A2988 RMK A01 T02720198  RH  064%=      5-min Rain = 0
KWE1 200954Z 19014KT 27/20 A2988 RMK A01 T02720199  RH  064%=      5-min Rain = 0
KWE1 200955Z 19013KT 27/20 A2988 RMK A01 T02720199  RH  064%=      5-min Rain = 0
KWE1 200956Z 19014KT 27/20 A2988 RMK A01 T02710199  RH  065%=      5-min Rain = 0
KWE1 200957Z 19014KT 27/20 A2988 RMK A01 T02710199  RH  065%=      5-min Rain = 0
KWE1 200958Z 20015G21KT 27/20 A2988 RMK A01 T02710200  RH  065%=      5-min Rain = 0
KWE1 200959Z 19014G19KT 27/20 A2988 RMK A01 T02710199  RH  065%=      5-min Rain = 0
KWE1 201000Z 19014KT 27/20 A2988 RMK A01 T02710199  RH  065%=      5-min Rain = 0
KWE1 201001Z 19014KT 27/20 A2988 RMK A01 T02710200  RH  065%=      5-min Rain = 0
KWE1 201002Z 19015KT 27/20 A2988 RMK A01 T02710200  RH  065%=      5-min Rain = 0
KWE1 201003Z 19015G20KT 27/20 A2988 RMK A01 T02710200  RH  065%=      5-min Rain = 0
KWE1 201004Z 19015KT 27/20 A2988 RMK A01 T02710201  RH  065%=      5-min Rain = 0
KWE1 201005Z 19016KT 27/20 A2988 RMK A01 T02710201  RH  065%=      5-min Rain = 0
KWE1 201006Z 20016G21KT 27/20 A2988 RMK A01 T02710201  RH  065%=      5-min Rain = 0
KWE1 201007Z 19014KT 27/20 A2988 RMK A01 T02710200  RH  065%=      5-min Rain = 0
KWE1 201008Z 19016KT 27/20 A2988 RMK A01 T02710201  RH  065%=      5-min Rain = 0
KWE1 201009Z 19014KT 27/20 A2988 RMK A01 T02710201  RH  066%=      5-min Rain = 0
KWE1 201010Z 19015G20KT 27/20 A2988 RMK A01 T02710201  RH  066%=      5-min Rain = 0
KWE1 201011Z 19013G20KT 27/20 A2988 RMK A01 T02710201  RH  066%=      5-min Rain = 0
KWE1 201012Z 19017KT 27/20 A2988 RMK A01 T02700201  RH  066%=      5-min Rain = 0
KWE1 201013Z 19014KT 27/20 A2988 RMK A01 T02700201  RH  066%=      5-min Rain = 0
KWE1 201014Z 19014KT 27/20 A2988 RMK A01 T02700201  RH  066%=      5-min Rain = 0
KWE1 201015Z 19014KT 27/20 A2988 RMK A01 T02700201  RH  066%=      5-min Rain = 0
KWE1 201016Z 19016KT 27/20 A2988 RMK A01 T02700201  RH  066%=      5-min Rain = 0
KWE1 201017Z 19014G19KT 27/20 A2988 RMK A01 T02700202  RH  066%=      5-min Rain = 0
KWE1 201018Z 20014KT 27/20 A2988 RMK A01 T02700202  RH  066%=      5-min Rain = 0
KWE1 201019Z 19014KT 27/20 A2988 RMK A01 T02700202  RH  066%=      5-min Rain = 0
KWE1 201020Z 19014KT 27/20 A2988 RMK A01 T02700202  RH  066%=      5-min Rain = 0
KWE1 201021Z 19015KT 27/20 A2988 RMK A01 T02700202  RH  067%=      5-min Rain = 0
KWE1 201022Z 19015KT 27/20 A2988 RMK A01 T02690202  RH  067%=      5-min Rain = 0
KWE1 201023Z 19015KT 27/20 A2988 RMK A01 T02690202  RH  067%=      5-min Rain = 0
KWE1 201024Z 19012KT 27/20 A2988 RMK A01 T02690202  RH  067%=      5-min Rain = 0
KWE1 201025Z 19014KT 27/20 A2988 RMK A01 T02690202  RH  067%=      5-min Rain = 0
KWE1 201026Z 19016KT 27/20 A2988 RMK A01 T02680202  RH  067%=      5-min Rain = 0
KWE1 201027Z 19015KT 27/20 A2988 RMK A01 T02680203  RH  067%=      5-min Rain = 0
KWE1 201028Z 19014KT 27/20 A2988 RMK A01 T02690203  RH  067%=      5-min Rain = 0
KWE1 201029Z 19013KT 27/20 A2989 RMK A01 T02690203  RH  067%=      5-min Rain = 0
KWE1 201030Z 19013KT 27/20 A2989 RMK A01 T02680203  RH  067%=      5-min Rain = 0
KWE1 201031Z 19013KT 27/20 A2989 RMK A01 T02680203  RH  067%=      5-min Rain = 0
KWE1 201032Z 19014KT 27/20 A2989 RMK A01 T02680203  RH  068%=      5-min Rain = 0
KWE1 201033Z 19013KT 27/20 A2989 RMK A01 T02670203  RH  068%=      5-min Rain = 0
KWE1 201034Z 19012KT 27/20 A2989 RMK A01 T02670203  RH  068%=      5-min Rain = 0
KWE1 201035Z 19013KT 27/20 A2989 RMK A01 T02670203  RH  068%=      5-min Rain = 0
KWE1 201036Z 19012KT 27/20 A2989 RMK A01 T02670204  RH  068%=      5-min Rain = 0
KWE1 201037Z 19014KT 27/20 A2989 RMK A01 T02670203  RH  068%=      5-min Rain = 0
KWE1 201038Z 19013KT 27/20 A2989 RMK A01 T02660204  RH  068%=      5-min Rain = 0
KWE1 201039Z 18013KT 27/20 A2989 RMK A01 T02670204  RH  068%=      5-min Rain = 0
KWE1 201040Z 19014KT 27/20 A2989 RMK A01 T02670204  RH  068%=      5-min Rain = 0
KWE1 201041Z 19014KT 27/20 A2989 RMK A01 T02660204  RH  068%=      5-min Rain = 0
KWE1 201042Z 19014KT 27/20 A2989 RMK A01 T02670204  RH  068%=      5-min Rain = 0
KWE1 201043Z 19014KT 27/20 A2989 RMK A01 T02670204  RH  068%=      5-min Rain = 0
KWE1 201044Z 19015KT 27/20 A2989 RMK A01 T02670204  RH  068%=      5-min Rain = 0
KWE1 201045Z 19012KT 27/20 A2989 RMK A01 T02670204  RH  068%=      5-min Rain = 0
KWE1 201046Z 19013G18KT 27/20 A2989 RMK A01 T02670204  RH  068%=      5-min Rain = 0
KWE1 201047Z 19016KT 27/21 A2989 RMK A01 T02670205  RH  069%=      5-min Rain = 0
KWE1 201048Z 19015KT 27/21 A2989 RMK A01 T02670205  RH  069%=      5-min Rain = 0
KWE1 201049Z 19012KT 27/20 A2989 RMK A01 T02660204  RH  069%=      5-min Rain = 0
KWE1 201050Z 19013KT 27/20 A2989 RMK A01 T02660204  RH  069%=      5-min Rain = 0
KWE1 201051Z 19014KT 27/20 A2989 RMK A01 T02660204  RH  069%=      5-min Rain = 0
KWE1 201052Z 19015KT 27/21 A2989 RMK A01 T02660205  RH  069%=      5-min Rain = 0
KWE1 201053Z 19014KT 27/21 A2989 RMK A01 T02660205  RH  069%=      5-min Rain = 0
KWE1 201054Z 19014KT 27/21 A2989 RMK A01 T02660205  RH  069%=      5-min Rain = 0
KWE1 201055Z 20012KT 27/21 A2989 RMK A01 T02650205  RH  069%=      5-min Rain = 0
KWE1 201056Z 19014KT 27/21 A2989 RMK A01 T02650205  RH  069%=      5-min Rain = 0
KWE1 201057Z 19013KT 27/21 A2989 RMK A01 T02650205  RH  069%=      5-min Rain = 0
KWE1 201058Z 19013KT 27/21 A2989 RMK A01 T02650205  RH  069%=      5-min Rain = 0
KWE1 201059Z 19013KT 27/21 A2989 RMK A01 T02650205  RH  069%=      5-min Rain = 0
KWE1 201100Z 19014KT 27/21 A2989 RMK A01 T02650205  RH  070%=      5-min Rain = 0
KWE1 201101Z 19014KT 27/21 A2989 RMK A01 T02650205  RH  070%=      5-min Rain = 0
KWE1 201102Z 19013KT 27/21 A2989 RMK A01 T02650205  RH  070%=      5-min Rain = 0
KWE1 201103Z 19014KT 27/21 A2989 RMK A01 T02650205  RH  070%=      5-min Rain = 0
KWE1 201104Z 19014KT 26/21 A2989 RMK A01 T02640205  RH  070%=      5-min Rain = 0
KWE1 201105Z 19014KT 27/21 A2989 RMK A01 T02650205  RH  070%=      5-min Rain = 0
KWE1 201106Z 19013KT 27/21 A2989 RMK A01 T02650205  RH  070%=      5-min Rain = 0
KWE1 201107Z 19015KT 27/21 A2989 RMK A01 T02650205  RH  070%=      5-min Rain = 0
KWE1 201108Z 19014KT 26/21 A2989 RMK A01 T02640205  RH  070%=      5-min Rain = 0
KWE1 201109Z 19014G19KT 26/21 A2989 RMK A01 T02640205  RH  070%=      5-min Rain = 0
KWE1 201110Z 19015KT 26/21 A2989 RMK A01 T02640206  RH  070%=      5-min Rain = 0
KWE1 201111Z 18016KT 26/21 A2989 RMK A01 T02640206  RH  070%=      5-min Rain = 0
KWE1 201112Z 19016KT 26/21 A2989 RMK A01 T02640205  RH  070%=      5-min Rain = 0
KWE1 201113Z 19014KT 26/21 A2989 RMK A01 T02640205  RH  070%=      5-min Rain = 0
KWE1 201114Z 19015KT 26/21 A2989 RMK A01 T02640205  RH  070%=      5-min Rain = 0
KWE1 201115Z 19013KT 26/21 A2989 RMK A01 T02640206  RH  070%=      5-min Rain = 0
KWE1 201116Z 19013KT 26/21 A2989 RMK A01 T02630205  RH  070%=      5-min Rain = 0
KWE1 201117Z 19014KT 26/21 A2989 RMK A01 T02630206  RH  071%=      5-min Rain = 0
KWE1 201118Z 19015KT 26/21 A2989 RMK A01 T02630206  RH  071%=      5-min Rain = 0
KWE1 201119Z 19013KT 26/21 A2989 RMK A01 T02630206  RH  071%=      5-min Rain = 0
KWE1 201120Z 19015KT 26/21 A2989 RMK A01 T02630206  RH  071%=      5-min Rain = 0
KWE1 201121Z 19017KT 26/21 A2989 RMK A01 T02630206  RH  071%=      5-min Rain = 0
KWE1 201122Z 19014KT 26/21 A2989 RMK A01 T02630206  RH  071%=      5-min Rain = 0
KWE1 201123Z 19015KT 26/21 A299 RMK A01 T02630205  RH  071%=      5-min Rain = 0
KWE1 201124Z 19015KT 26/21 A299 RMK A01 T02630206  RH  071%=      5-min Rain = 0
KWE1 201125Z 19016KT 26/21 A299 RMK A01 T02630206  RH  071%=      5-min Rain = 0
KWE1 201126Z 19014KT 26/21 A299 RMK A01 T02630206  RH  071%=      5-min Rain = 0
KWE1 201127Z 19016KT 26/21 A299 RMK A01 T02630206  RH  071%=      5-min Rain = 0
KWE1 201128Z 19016KT 26/21 A299 RMK A01 T02630206  RH  071%=      5-min Rain = 0
KWE1 201129Z 18014KT 26/21 A299 RMK A01 T02630206  RH  071%=      5-min Rain = 0
KWE1 201130Z 19014KT 26/21 A299 RMK A01 T02620206  RH  071%=      5-min Rain = 0
KWE1 201131Z 19016KT 26/21 A299 RMK A01 T02620206  RH  071%=      5-min Rain = 0
KWE1 201132Z 19015KT 26/21 A299 RMK A01 T02620206  RH  071%=      5-min Rain = 0
KWE1 201133Z 19016KT 26/21 A299 RMK A01 T02620206  RH  071%=      5-min Rain = 0
KWE1 201134Z 19015KT 26/21 A299 RMK A01 T02620206  RH  071%=      5-min Rain = 0
KWE1 201135Z 19014KT 26/21 A299 RMK A01 T02620206  RH  071%=      5-min Rain = 0
KWE1 201136Z 19014KT 26/21 A299 RMK A01 T02620206  RH  071%=      5-min Rain = 0
KWE1 201137Z 19016KT 26/21 A299 RMK A01 T02620206  RH  071%=      5-min Rain = 0
KWE1 201138Z 19012KT 26/21 A299 RMK A01 T02620206  RH  071%=      5-min Rain = 0
KWE1 201139Z 19013KT 26/21 A299 RMK A01 T02620206  RH  072%=      5-min Rain = 0
KWE1 201140Z 19013KT 26/21 A299 RMK A01 T02610206  RH  072%=      5-min Rain = 0
KWE1 201141Z 19014KT 26/21 A299 RMK A01 T02600206  RH  072%=      5-min Rain = 0
KWE1 201142Z 19012KT 26/21 A299 RMK A01 T02600206  RH  072%=      5-min Rain = 0
KWE1 201143Z 19014KT 26/21 A299 RMK A01 T02600206  RH  072%=      5-min Rain = 0
KWE1 201144Z 19012KT 26/21 A299 RMK A01 T02600206  RH  072%=      5-min Rain = 0
KWE1 201145Z 19014KT 26/21 A299 RMK A01 T02600206  RH  072%=      5-min Rain = 0
KWE1 201146Z 19012KT 26/21 A299 RMK A01 T02600206  RH  072%=      5-min Rain = 0
KWE1 201147Z 19014KT 26/21 A299 RMK A01 T02600206  RH  072%=      5-min Rain = 0
KWE1 201148Z 19013KT 26/21 A299 RMK A01 T02600206  RH  072%=      5-min Rain = 0
KWE1 201149Z 19012KT 26/21 A299 RMK A01 T02590206  RH  072%=      5-min Rain = 0
KWE1 201150Z 19012KT 26/21 A299 RMK A01 T02600206  RH  072%=      5-min Rain = 0
KWE1 201151Z 19012KT 26/21 A299 RMK A01 T02600206  RH  072%=      5-min Rain = 0
KWE1 201152Z 19014KT 26/21 A299 RMK A01 T02590206  RH  072%=      5-min Rain = 0
KWE1 201153Z 19014KT 26/21 A299 RMK A01 T02590206  RH  072%=      5-min Rain = 0
KWE1 201154Z 19013KT 26/21 A299 RMK A01 T02600207  RH  072%=      5-min Rain = 0
KWE1 201155Z 19015KT 26/21 A299 RMK A01 T02600207  RH  072%=      5-min Rain = 0
KWE1 201156Z 19013KT 26/21 A2991 RMK A01 T02600207  RH  072%=      5-min Rain = 0
KWE1 201157Z 19011KT 26/21 A2991 RMK A01 T02610207  RH  072%=      5-min Rain = 0
KWE1 201158Z 19012KT 26/21 A2991 RMK A01 T02600207  RH  072%=      5-min Rain = 0
KWE1 201159Z 19012KT 26/21 A2991 RMK A01 T02600207  RH  073%=      5-min Rain = 0
KWE1 201200Z 19014KT 26/21 A299 RMK A01 T02590207  RH  073%=      5-min Rain = 0
KWE1 201201Z 19013KT 26/21 A2991 RMK A01 T02600207  RH  073%=      5-min Rain = 0
KWE1 201202Z 19013KT 26/21 A299 RMK A01 T02600207  RH  073%=      5-min Rain = 0
KWE1 201203Z 19014KT 26/21 A2991 RMK A01 T02600207  RH  073%=      5-min Rain = 0
KWE1 201204Z 19014KT 26/21 A2991 RMK A01 T02600207  RH  073%=      5-min Rain = 0
KWE1 201205Z 19013KT 26/21 A2991 RMK A01 T02600207  RH  073%=      5-min Rain = 0
KWE1 201206Z 19011KT 26/21 A2991 RMK A01 T02600207  RH  073%=      5-min Rain = 0
KWE1 201207Z 19012KT 26/21 A2991 RMK A01 T02600207  RH  073%=      5-min Rain = 0
KWE1 201208Z 19013KT 26/21 A2991 RMK A01 T02600207  RH  073%=      5-min Rain = 0
KWE1 201209Z 19012KT 26/21 A2991 RMK A01 T02590207  RH  073%=      5-min Rain = 0
KWE1 201210Z 19011KT 26/21 A2991 RMK A01 T02590207  RH  073%=      5-min Rain = 0
KWE1 201211Z 20012KT 26/21 A2991 RMK A01 T02600207  RH  073%=      5-min Rain = 0
KWE1 201212Z 19011KT 26/21 A2991 RMK A01 T02590207  RH  073%=      5-min Rain = 0
KWE1 201213Z 19011KT 26/21 A2991 RMK A01 T02600207  RH  073%=      5-min Rain = 0
KWE1 201214Z 19011KT 26/21 A2991 RMK A01 T02600207  RH  073%=      5-min Rain = 0
KWE1 201215Z 19011KT 26/21 A2991 RMK A01 T02600208  RH  073%=      5-min Rain = 0
KWE1 201216Z 19012KT 26/21 A2991 RMK A01 T02600207  RH  073%=      5-min Rain = 0
KWE1 201217Z 19013KT 26/21 A2991 RMK A01 T02590207  RH  073%=      5-min Rain = 0
KWE1 201218Z 19013KT 26/21 A2991 RMK A01 T02600207  RH  073%=      5-min Rain = 0
KWE1 201219Z 19013KT 26/21 A2991 RMK A01 T02600208  RH  073%=      5-min Rain = 0
KWE1 201220Z 19014KT 26/21 A2991 RMK A01 T02600207  RH  073%=      5-min Rain = 0
KWE1 201221Z 19013G18KT 26/21 A2991 RMK A01 T02600207  RH  073%=      5-min Rain = 0
KWE1 201222Z 19012KT 26/21 A2991 RMK A01 T02610208  RH  073%=      5-min Rain = 0
KWE1 201223Z 19013KT 26/21 A2991 RMK A01 T02610208  RH  073%=      5-min Rain = 0
KWE1 201224Z 18013KT 26/21 A2991 RMK A01 T02610208  RH  073%=      5-min Rain = 0
KWE1 201225Z 18013KT 26/21 A2991 RMK A01 T02610208  RH  073%=      5-min Rain = 0
KWE1 201226Z 19013KT 26/21 A2991 RMK A01 T02610208  RH  072%=      5-min Rain = 0
KWE1 201227Z 18012KT 26/21 A2991 RMK A01 T02610208  RH  072%=      5-min Rain = 0
KWE1 201228Z 19014KT 26/21 A2991 RMK A01 T02610208  RH  072%=      5-min Rain = 0
KWE1 201229Z 19012KT 26/21 A2991 RMK A01 T02610208  RH  072%=      5-min Rain = 0
KWE1 201230Z 19013KT 26/21 A2991 RMK A01 T02620208  RH  072%=      5-min Rain = 0
KWE1 201231Z 18014KT 26/21 A2991 RMK A01 T02620208  RH  072%=      5-min Rain = 0
KWE1 201232Z 19012KT 26/21 A2991 RMK A01 T02620208  RH  072%=      5-min Rain = 0
KWE1 201233Z 18012KT 26/21 A2991 RMK A01 T02620208  RH  072%=      5-min Rain = 0
KWE1 201234Z 18012KT 26/21 A2991 RMK A01 T02620208  RH  072%=      5-min Rain = 0
KWE1 201235Z 19013KT 26/21 A2991 RMK A01 T02620208  RH  072%=      5-min Rain = 0
KWE1 201236Z 18010KT 26/21 A2991 RMK A01 T02630209  RH  072%=      5-min Rain = 0
KWE1 201237Z 19012KT 26/21 A2991 RMK A01 T02630209  RH  072%=      5-min Rain = 0
KWE1 201238Z 18011KT 26/21 A2991 RMK A01 T02630208  RH  072%=      5-min Rain = 0
KWE1 201239Z 19011KT 26/21 A2991 RMK A01 T02630209  RH  072%=      5-min Rain = 0
KWE1 201240Z 19012KT 26/21 A2991 RMK A01 T02630209  RH  072%=      5-min Rain = 0
KWE1 201241Z 19013KT 26/21 A2991 RMK A01 T02630208  RH  072%=      5-min Rain = 0
KWE1 201242Z 18013KT 26/21 A2991 RMK A01 T02630208  RH  072%=      5-min Rain = 0
KWE1 201243Z 18011KT 26/21 A2991 RMK A01 T02640208  RH  072%=      5-min Rain = 0
KWE1 201244Z 18013KT 26/21 A2991 RMK A01 T02640209  RH  072%=      5-min Rain = 0
KWE1 201245Z 18010KT 26/21 A2991 RMK A01 T02640208  RH  071%=      5-min Rain = 0
KWE1 201246Z 18014KT 26/21 A2991 RMK A01 T02640209  RH  072%=      5-min Rain = 0
KWE1 201247Z 18014KT 26/21 A2991 RMK A01 T02640209  RH  071%=      5-min Rain = 0
KWE1 201248Z 18013KT 26/21 A2992 RMK A01 T02640208  RH  071%=      5-min Rain = 0
KWE1 201249Z 18012KT 26/21 A2992 RMK A01 T02640208  RH  071%=      5-min Rain = 0
KWE1 201250Z 18012G17KT 27/21 A2992 RMK A01 T02650209  RH  071%=      5-min Rain = 0
KWE1 201251Z 19015KT 27/21 A2992 RMK A01 T02650209  RH  071%=      5-min Rain = 0
KWE1 201252Z 18013KT 27/21 A2992 RMK A01 T02650209  RH  071%=      5-min Rain = 0
KWE1 201253Z 18012KT 27/21 A2992 RMK A01 T02650209  RH  071%=      5-min Rain = 0
KWE1 201254Z 18015KT 27/21 A2992 RMK A01 T02650209  RH  071%=      5-min Rain = 0
KWE1 201255Z 18013KT 27/21 A2992 RMK A01 T02650209  RH  071%=      5-min Rain = 0
KWE1 201256Z 18011KT 27/21 A2992 RMK A01 T02650209  RH  071%=      5-min Rain = 0
KWE1 201257Z 18012KT 27/21 A2992 RMK A01 T02660210  RH  071%=      5-min Rain = 0
KWE1 201258Z 19011KT 27/21 A2992 RMK A01 T02660209  RH  071%=      5-min Rain = 0
KWE1 201259Z 19011KT 27/21 A2992 RMK A01 T02660210  RH  071%=      5-min Rain = 0
KWE1 201300Z 19009KT 27/21 A2992 RMK A01 T02660210  RH  071%=      5-min Rain = 0
KWE1 201301Z 19011KT 27/21 A2992 RMK A01 T02670210  RH  071%=      5-min Rain = 0
KWE1 201302Z 19011KT 27/21 A2992 RMK A01 T02670210  RH  071%=      5-min Rain = 0
KWE1 201303Z 19011KT 27/21 A2992 RMK A01 T02670211  RH  071%=      5-min Rain = 0
KWE1 201304Z 19013KT 27/21 A2992 RMK A01 T02670210  RH  071%=      5-min Rain = 0
KWE1 201305Z 20012G17KT 27/21 A2992 RMK A01 T02680210  RH  071%=      5-min Rain = 0
KWE1 201306Z 19011KT 27/21 A2992 RMK A01 T02680210  RH  071%=      5-min Rain = 0
KWE1 201307Z 19012KT 27/21 A2992 RMK A01 T02680211  RH  071%=      5-min Rain = 0
KWE1 201308Z 19012KT 27/21 A2992 RMK A01 T02680210  RH  071%=      5-min Rain = 0
KWE1 201309Z 19012KT 27/21 A2992 RMK A01 T02680210  RH  071%=      5-min Rain = 0
KWE1 201310Z 20011KT 27/21 A2992 RMK A01 T02680211  RH  071%=      5-min Rain = 0
KWE1 201311Z 20009KT 27/21 A2992 RMK A01 T02680211  RH  071%=      5-min Rain = 0
KWE1 201312Z 20010KT 27/21 A2992 RMK A01 T02690211  RH  071%=      5-min Rain = 0
KWE1 201313Z 19012KT 27/21 A2992 RMK A01 T02690211  RH  070%=      5-min Rain = 0
KWE1 201314Z 19012KT 27/21 A2992 RMK A01 T02700212  RH  070%=      5-min Rain = 0
KWE1 201315Z 20015KT 27/21 A2992 RMK A01 T02700210  RH  069%=      5-min Rain = 0
KWE1 201316Z 20014KT 27/21 A2992 RMK A01 T02700210  RH  070%=      5-min Rain = 0
KWE1 201317Z 20012KT 27/21 A2992 RMK A01 T02700210  RH  070%=      5-min Rain = 0
KWE1 201318Z 19013KT 27/21 A2992 RMK A01 T02700211  RH  070%=      5-min Rain = 0
KWE1 201319Z 19012KT 27/21 A2992 RMK A01 T02710210  RH  070%=      5-min Rain = 0
KWE1 201320Z 19011KT 27/21 A2992 RMK A01 T02710211  RH  070%=      5-min Rain = 0
KWE1 201321Z 19011KT 27/21 A2992 RMK A01 T02720212  RH  070%=      5-min Rain = 0
KWE1 201322Z 19012KT 27/21 A2992 RMK A01 T02730212  RH  069%=      5-min Rain = 0
KWE1 201323Z 19016KT 27/21 A2992 RMK A01 T02730210  RH  069%=      5-min Rain = 0
KWE1 201324Z 19014KT 27/21 A2992 RMK A01 T02730209  RH  068%=      5-min Rain = 0
KWE1 201325Z 20012KT 27/21 A2992 RMK A01 T02730210  RH  069%=      5-min Rain = 0
KWE1 201326Z 19012KT 27/21 A2992 RMK A01 T02730210  RH  069%=      5-min Rain = 0
KWE1 201327Z 20010KT 27/21 A2992 RMK A01 T02730211  RH  069%=      5-min Rain = 0
KWE1 201328Z 19013KT 27/21 A2992 RMK A01 T02740211  RH  069%=      5-min Rain = 0
KWE1 201329Z 19014KT 27/21 A2992 RMK A01 T02740210  RH  068%=      5-min Rain = 0
KWE1 201330Z 19012KT 27/21 A2992 RMK A01 T02740210  RH  068%=      5-min Rain = 0
KWE1 201331Z 20014KT 28/21 A2992 RMK A01 T02750211  RH  068%=      5-min Rain = 0
KWE1 201332Z 19014KT 28/21 A2992 RMK A01 T02750210  RH  068%=      5-min Rain = 0
KWE1 201333Z 20014KT 28/21 A2992 RMK A01 T02750209  RH  068%=      5-min Rain = 0
KWE1 201334Z 20015KT 28/21 A2992 RMK A01 T02750210  RH  068%=      5-min Rain = 0
KWE1 201335Z 19017KT 28/21 A2992 RMK A01 T02750209  RH  067%=      5-min Rain = 0
KWE1 201336Z 20015KT 28/21 A2992 RMK A01 T02750209  RH  067%=      5-min Rain = 0
KWE1 201337Z 20016KT 28/21 A2992 RMK A01 T02750209  RH  067%=      5-min Rain = 0
KWE1 201338Z 20013KT 27/21 A2993 RMK A01 T02740210  RH  068%=      5-min Rain = 0
KWE1 201339Z 20015KT 28/21 A2992 RMK A01 T02750208  RH  067%=      5-min Rain = 0
KWE1 201340Z 20012KT 28/21 A2993 RMK A01 T02750207  RH  067%=      5-min Rain = 0
KWE1 201341Z 19013KT 28/21 A2993 RMK A01 T02750209  RH  067%=      5-min Rain = 0
KWE1 201342Z 19017KT 28/21 A2992 RMK A01 T02770208  RH  066%=      5-min Rain = 0
KWE1 201343Z 19015KT 28/21 A2993 RMK A01 T02770208  RH  066%=      5-min Rain = 0
KWE1 201344Z 20014KT 28/21 A2993 RMK A01 T02770209  RH  066%=      5-min Rain = 0
KWE1 201345Z 20013KT 28/21 A2993 RMK A01 T02770209  RH  066%=      5-min Rain = 0
KWE1 201346Z 19013KT 28/21 A2993 RMK A01 T02780208  RH  066%=      5-min Rain = 0
KWE1 201347Z 20016KT 28/21 A2993 RMK A01 T02780208  RH  066%=      5-min Rain = 0
KWE1 201348Z 20014KT 28/21 A2993 RMK A01 T02780208  RH  066%=      5-min Rain = 0
KWE1 201349Z 19013KT 28/21 A2993 RMK A01 T02780208  RH  066%=      5-min Rain = 0
KWE1 201350Z 20015KT 28/21 A2993 RMK A01 T02780208  RH  066%=      5-min Rain = 0
KWE1 201351Z 18015KT 28/21 A2992 RMK A01 T02790208  RH  065%=      5-min Rain = 0
KWE1 201352Z 19015KT 28/21 A2992 RMK A01 T02790208  RH  065%=      5-min Rain = 0
KWE1 201353Z 20011KT 28/21 A2992 RMK A01 T02800208  RH  065%=      5-min Rain = 0
KWE1 201354Z 19012KT 28/21 A2993 RMK A01 T02800209  RH  065%=      5-min Rain = 0
KWE1 201355Z 20011KT 28/21 A2993 RMK A01 T02810210  RH  065%=      5-min Rain = 0
KWE1 201356Z 19014G19KT 28/21 A2993 RMK A01 T02830210  RH  065%=      5-min Rain = 0
KWE1 201357Z 20016KT 28/21 A2992 RMK A01 T02840207  RH  063%=      5-min Rain = 0
KWE1 201358Z 20014KT 28/21 A2992 RMK A01 T02820206  RH  063%=      5-min Rain = 0
KWE1 201359Z 19014KT 28/21 A2993 RMK A01 T02810206  RH  064%=      5-min Rain = 0
KWE1 201400Z 19013KT 28/21 A2993 RMK A01 T02820208  RH  064%=      5-min Rain = 0
KWE1 201401Z 20011KT 28/21 A2993 RMK A01 T02830209  RH  064%=      5-min Rain = 0
KWE1 201402Z 20012KT 28/21 A2993 RMK A01 T02840207  RH  063%=      5-min Rain = 0
KWE1 201403Z 21012KT 28/21 A2993 RMK A01 T02840206  RH  062%=      5-min Rain = 0
KWE1 201404Z 20013KT 28/21 A2993 RMK A01 T02840206  RH  062%=      5-min Rain = 0
KWE1 201405Z 19015KT 28/21 A2993 RMK A01 T02840206  RH  062%=      5-min Rain = 0
KWE1 201406Z 20013KT 28/21 A2993 RMK A01 T02840206  RH  063%=      5-min Rain = 0
KWE1 201407Z 20015G20KT 28/21 A2993 RMK A01 T02840205  RH  062%=      5-min Rain = 0
KWE1 201408Z 19015KT 28/20 A2993 RMK A01 T02840204  RH  062%=      5-min Rain = 0
KWE1 201409Z 20015KT 28/20 A2993 RMK A01 T02840204  RH  062%=      5-min Rain = 0
KWE1 201410Z 20015KT 29/21 A2993 RMK A01 T02850205  RH  062%=      5-min Rain = 0
KWE1 201411Z 20016KT 29/20 A2993 RMK A01 T02860204  RH  061%=      5-min Rain = 0
KWE1 201412Z 20012KT 29/20 A2993 RMK A01 T02860204  RH  061%=      5-min Rain = 0
KWE1 201413Z 20014KT 29/20 A2993 RMK A01 T02860204  RH  061%=      5-min Rain = 0
KWE1 201414Z 19016G21KT 29/20 A2993 RMK A01 T02870204  RH  061%=      5-min Rain = 0
KWE1 201415Z 19017KT 29/20 A2993 RMK A01 T02880203  RH  060%=      5-min Rain = 0
KWE1 201416Z 20015G20KT 29/20 A2993 RMK A01 T02870203  RH  060%=      5-min Rain = 0
KWE1 201417Z 19017KT 29/20 A2993 RMK A01 T02880203  RH  060%=      5-min Rain = 0
KWE1 201418Z 19015G20KT 29/20 A2993 RMK A01 T02880202  RH  060%=      5-min Rain = 0
KWE1 201419Z 20016G21KT 29/20 A2993 RMK A01 T02890203  RH  060%=      5-min Rain = 0
KWE1 201420Z 20014KT 29/20 A2993 RMK A01 T02890202  RH  059%=      5-min Rain = 0
KWE1 201421Z 19015G20KT 29/20 A2993 RMK A01 T02900203  RH  060%=      5-min Rain = 0
KWE1 201422Z 20014KT 29/20 A2993 RMK A01 T02910204  RH  060%=      5-min Rain = 0
KWE1 201423Z 20014G19KT 29/20 A2993 RMK A01 T02910204  RH  060%=      5-min Rain = 0
KWE1 201424Z 19014KT 29/20 A2993 RMK A01 T02910204  RH  059%=      5-min Rain = 0
KWE1 201425Z 19017G22KT 29/20 A2993 RMK A01 T02910204  RH  059%=      5-min Rain = 0
KWE1 201426Z 19016KT 29/20 A2993 RMK A01 T02910203  RH  059%=      5-min Rain = 0
KWE1 201427Z 19013KT 29/21 A2993 RMK A01 T02920205  RH  060%=      5-min Rain = 0
KWE1 201428Z 20016KT 29/21 A2993 RMK A01 T02940206  RH  059%=      5-min Rain = 0
KWE1 201429Z 21016KT 29/20 A2993 RMK A01 T02940203  RH  058%=      5-min Rain = 0
KWE1 201430Z 20014KT 29/20 A2993 RMK A01 T02940203  RH  058%=      5-min Rain = 0
KWE1 201431Z 20014KT 29/20 A2993 RMK A01 T02940204  RH  059%=      5-min Rain = 0
KWE1 201432Z 20015KT 29/20 A2993 RMK A01 T02940204  RH  058%=      5-min Rain = 0
KWE1 201433Z 21014KT 29/20 A2993 RMK A01 T02940203  RH  058%=      5-min Rain = 0
KWE1 201434Z 21016KT 30/20 A2993 RMK A01 T02950203  RH  058%=      5-min Rain = 0
KWE1 201435Z 20014KT 30/20 A2993 RMK A01 T02950203  RH  058%=      5-min Rain = 0
KWE1 201436Z 19015KT 30/20 A2993 RMK A01 T02950204  RH  058%=      5-min Rain = 0
KWE1 201437Z 19013KT 30/20 A2993 RMK A01 T02950204  RH  058%=      5-min Rain = 0
KWE1 201438Z 19015KT 30/20 A2993 RMK A01 T02960204  RH  058%=      5-min Rain = 0
KWE1 201439Z 20017KT 30/20 A2993 RMK A01 T02960203  RH  058%=      5-min Rain = 0
KWE1 201440Z 20016KT 30/20 A2993 RMK A01 T02960203  RH  057%=      5-min Rain = 0
KWE1 201441Z 20016KT 30/20 A2993 RMK A01 T02950203  RH  058%=      5-min Rain = 0
KWE1 201442Z 20017KT 30/20 A2993 RMK A01 T02950202  RH  058%=      5-min Rain = 0
KWE1 201443Z 20016KT 29/20 A2993 RMK A01 T02940202  RH  058%=      5-min Rain = 0
KWE1 201444Z 20012KT 29/20 A2993 RMK A01 T02940202  RH  058%=      5-min Rain = 0
KWE1 201445Z 20012KT 30/20 A2993 RMK A01 T02950204  RH  058%=      5-min Rain = 0
KWE1 201446Z 19014KT 30/20 A2993 RMK A01 T02960204  RH  058%=      5-min Rain = 0
KWE1 201447Z 19015KT 30/20 A2993 RMK A01 T02970202  RH  057%=      5-min Rain = 0
KWE1 201448Z 19017KT 30/20 A2993 RMK A01 T02980203  RH  057%=      5-min Rain = 0
KWE1 201449Z 20016G22KT 30/20 A2993 RMK A01 T02990203  RH  056%=      5-min Rain = 0
KWE1 201450Z 20018KT 30/20 A2993 RMK A01 T02990201  RH  056%=      5-min Rain = 0
KWE1 201451Z 20017KT 30/20 A2993 RMK A01 T02970201  RH  056%=      5-min Rain = 0
KWE1 201452Z 20020KT 30/20 A2993 RMK A01 T02960201  RH  057%=      5-min Rain = 0
KWE1 201453Z 20018KT 30/20 A2993 RMK A01 T02960200  RH  056%=      5-min Rain = 0
KWE1 201454Z 20016KT 30/20 A2993 RMK A01 T02970200  RH  056%=      5-min Rain = 0
KWE1 201455Z 21013KT 30/20 A2993 RMK A01 T02970202  RH  057%=      5-min Rain = 0
KWE1 201456Z 20015KT 30/20 A2993 RMK A01 T03000202  RH  056%=      5-min Rain = 0
KWE1 201457Z 21016KT 30/20 A2993 RMK A01 T03000201  RH  055%=      5-min Rain = 0
KWE1 201458Z 22019KT 30/20 A2992 RMK A01 T03000201  RH  055%=      5-min Rain = 0
KWE1 201459Z 21016KT 30/20 A2992 RMK A01 T03000200  RH  055%=      5-min Rain = 0
KWE1 201500Z 20013KT 30/20 A2993 RMK A01 T03010202  RH  055%=      5-min Rain = 0
KWE1 201501Z 20013KT 30/20 A2992 RMK A01 T03030204  RH  055%=      5-min Rain = 0
KWE1 201502Z 20013KT 30/20 A2993 RMK A01 T03030204  RH  056%=      5-min Rain = 0
KWE1 201503Z 21015KT 30/20 A2992 RMK A01 T03040203  RH  055%=      5-min Rain = 0
KWE1 201504Z 21017KT 30/20 A2992 RMK A01 T03040201  RH  054%=      5-min Rain = 0
KWE1 201505Z 20017KT 30/20 A2992 RMK A01 T03030202  RH  055%=      5-min Rain = 0
KWE1 201506Z 20017KT 30/20 A2992 RMK A01 T03030201  RH  054%=      5-min Rain = 0
KWE1 201507Z 20017KT 30/20 A2992 RMK A01 T03030201  RH  054%=      5-min Rain = 0
KWE1 201508Z 20017KT 30/20 A2992 RMK A01 T03030201  RH  055%=      5-min Rain = 0
KWE1 201509Z 20014KT 30/20 A2992 RMK A01 T03020202  RH  055%=      5-min Rain = 0
KWE1 201510Z 19013KT 30/20 A2992 RMK A01 T03030204  RH  055%=      5-min Rain = 0
KWE1 201511Z 19014KT 30/20 A2992 RMK A01 T03040204  RH  055%=      5-min Rain = 0
KWE1 201512Z 19016KT 31/20 A2992 RMK A01 T03060204  RH  055%=      5-min Rain = 0
KWE1 201513Z 20012KT 31/21 A2992 RMK A01 T03070205  RH  055%=      5-min Rain = 0
KWE1 201514Z 19014KT 31/21 A2992 RMK A01 T03090207  RH  055%=      5-min Rain = 0
KWE1 201515Z 20016G21KT 31/21 A2992 RMK A01 T03100205  RH  053%=      5-min Rain = 0
KWE1 201516Z 20016KT 31/20 A2992 RMK A01 T03100203  RH  053%=      5-min Rain = 0
KWE1 201517Z 20015KT 31/20 A2992 RMK A01 T03080202  RH  053%=      5-min Rain = 0
KWE1 201518Z 20014KT 31/20 A2992 RMK A01 T03070203  RH  054%=      5-min Rain = 0
KWE1 201519Z 21014KT 31/20 A2992 RMK A01 T03070203  RH  054%=      5-min Rain = 0
KWE1 201520Z 19015KT 31/20 A2992 RMK A01 T03070203  RH  054%=      5-min Rain = 0
KWE1 201521Z 19017KT 31/20 A2992 RMK A01 T03080203  RH  054%=      5-min Rain = 0
KWE1 201522Z 19016KT 31/20 A2992 RMK A01 T03090203  RH  053%=      5-min Rain = 0
KWE1 201523Z 19016KT 31/20 A2992 RMK A01 T03100203  RH  053%=      5-min Rain = 0
KWE1 201524Z 19015KT 31/20 A2992 RMK A01 T03100203  RH  053%=      5-min Rain = 0
KWE1 201525Z 20012KT 31/20 A2992 RMK A01 T03100203  RH  053%=      5-min Rain = 0
KWE1 201526Z 20013G18KT 31/20 A2992 RMK A01 T03100204  RH  053%=      5-min Rain = 0
KWE1 201527Z 20015KT 31/20 A2992 RMK A01 T03100203  RH  053%=      5-min Rain = 0
KWE1 201528Z 21015KT 31/20 A2992 RMK A01 T03110201  RH  052%=      5-min Rain = 0
KWE1 201529Z 19014G20KT 31/20 A2992 RMK A01 T03110202  RH  052%=      5-min Rain = 0
KWE1 201530Z 20016KT 31/20 A2992 RMK A01 T03130202  RH  052%=      5-min Rain = 0
KWE1 201531Z 20014KT 31/20 A2992 RMK A01 T03120203  RH  052%=      5-min Rain = 0
KWE1 201532Z 19016KT 31/20 A2991 RMK A01 T03110202  RH  052%=      5-min Rain = 0
KWE1 201533Z 19018KT 31/20 A2991 RMK A01 T03110202  RH  052%=      5-min Rain = 0
KWE1 201534Z 19016KT 31/20 A2991 RMK A01 T03120202  RH  052%=      5-min Rain = 0
KWE1 201535Z 19013KT 31/20 A2992 RMK A01 T03120202  RH  052%=      5-min Rain = 0
KWE1 201536Z 19015KT 31/20 A2991 RMK A01 T03120203  RH  052%=      5-min Rain = 0
KWE1 201537Z 20011KT 31/20 A2992 RMK A01 T03140203  RH  052%=      5-min Rain = 0
KWE1 201538Z 20017KT 31/20 A2991 RMK A01 T03140202  RH  051%=      5-min Rain = 0
KWE1 201539Z 19016KT 31/20 A2992 RMK A01 T03130200  RH  051%=      5-min Rain = 0
KWE1 201540Z 19017KT 31/20 A2992 RMK A01 T03120201  RH  051%=      5-min Rain = 0
KWE1 201541Z 20015KT 31/20 A2991 RMK A01 T03130200  RH  051%=      5-min Rain = 0
KWE1 201542Z 18015KT 31/20 A2992 RMK A01 T03130201  RH  051%=      5-min Rain = 0
KWE1 201543Z 19015KT 32/20 A2991 RMK A01 T03150201  RH  051%=      5-min Rain = 0
KWE1 201544Z 20014KT 32/20 A2992 RMK A01 T03160203  RH  051%=      5-min Rain = 0
KWE1 201545Z 19017KT 32/20 A2991 RMK A01 T03170202  RH  051%=      5-min Rain = 0
KWE1 201546Z 19017KT 32/20 A2991 RMK A01 T03170201  RH  050%=      5-min Rain = 0
KWE1 201547Z 20012KT 32/20 A2991 RMK A01 T03170202  RH  050%=      5-min Rain = 0
KWE1 201548Z 20016KT 32/20 A2991 RMK A01 T03180201  RH  050%=      5-min Rain = 0
KWE1 201549Z 20013KT 32/20 A2991 RMK A01 T03180201  RH  050%=      5-min Rain = 0
KWE1 201550Z 20012G17KT 32/20 A2991 RMK A01 T03190203  RH  050%=      5-min Rain = 0
KWE1 201551Z 19017KT 32/20 A2991 RMK A01 T03210203  RH  050%=      5-min Rain = 0
KWE1 201552Z 19014KT 32/20 A2991 RMK A01 T03220203  RH  049%=      5-min Rain = 0
KWE1 201553Z 19014KT 32/20 A2991 RMK A01 T03220203  RH  049%=      5-min Rain = 0
KWE1 201554Z 20017KT 32/20 A2991 RMK A01 T03220202  RH  049%=      5-min Rain = 0
KWE1 201555Z 20013KT 32/20 A2991 RMK A01 T03220201  RH  049%=      5-min Rain = 0
KWE1 201556Z 19017KT 32/20 A2991 RMK A01 T03210202  RH  049%=      5-min Rain = 0
KWE1 201557Z 19013KT 32/20 A2991 RMK A01 T03220202  RH  049%=      5-min Rain = 0
KWE1 201558Z 18016KT 32/20 A2991 RMK A01 T03230203  RH  049%=      5-min Rain = 0
KWE1 201559Z 20019KT 32/20 A2991 RMK A01 T03240199  RH  048%=      5-min Rain = 0
KWE1 201600Z 20014KT 32/20 A2991 RMK A01 T03230200  RH  048%=      5-min Rain = 0
KWE1 201601Z 21014KT 32/20 A2991 RMK A01 T03230199  RH  048%=      5-min Rain = 0
KWE1 201602Z 21014KT 32/20 A2991 RMK A01 T03230200  RH  048%=      5-min Rain = 0
KWE1 201603Z 21015KT 33/20 A2991 RMK A01 T03250200  RH  048%=      5-min Rain = 0
KWE1 201604Z 21015KT 33/20 A2991 RMK A01 T03260201  RH  048%=      5-min Rain = 0
KWE1 201605Z 20015KT 33/20 A2991 RMK A01 T03270201  RH  047%=      5-min Rain = 0
KWE1 201606Z 20015KT 33/20 A2991 RMK A01 T03270201  RH  047%=      5-min Rain = 0
KWE1 201607Z 20014KT 33/20 A2991 RMK A01 T03260199  RH  047%=      5-min Rain = 0
KWE1 201608Z 19015KT 33/20 A2991 RMK A01 T03260204  RH  049%=      5-min Rain = 0
KWE1 201609Z 20010KT 33/20 A2991 RMK A01 T03270203  RH  048%=      5-min Rain = 0
KWE1 201610Z 19015G20KT 33/20 A2991 RMK A01 T03290204  RH  048%=      5-min Rain = 0
KWE1 201611Z 19017KT 33/20 A2991 RMK A01 T03290199  RH  046%=      5-min Rain = 0
KWE1 201612Z 19015G21KT 33/20 A2991 RMK A01 T03280200  RH  047%=      5-min Rain = 0
KWE1 201613Z 18017KT 33/20 A2991 RMK A01 T03290199  RH  046%=      5-min Rain = 0
KWE1 201614Z 19016KT 33/20 A2991 RMK A01 T03290200  RH  047%=      5-min Rain = 0
KWE1 201615Z 19016KT 33/20 A2991 RMK A01 T03300198  RH  046%=      5-min Rain = 0
KWE1 201616Z 19016KT 33/20 A2991 RMK A01 T03280198  RH  047%=      5-min Rain = 0
KWE1 201617Z 18017KT 33/20 A2991 RMK A01 T03280198  RH  046%=      5-min Rain = 0
KWE1 201618Z 18016G21KT 33/20 A2991 RMK A01 T03290197  RH  046%=      5-min Rain = 0
KWE1 201619Z 20016KT 33/20 A2991 RMK A01 T03300199  RH  046%=      5-min Rain = 0
KWE1 201620Z 21014KT 33/20 A2991 RMK A01 T03320200  RH  046%=      5-min Rain = 0
KWE1 201621Z 21017KT 33/20 A2991 RMK A01 T03320197  RH  045%=      5-min Rain = 0
KWE1 201622Z 21013KT 33/20 A2991 RMK A01 T03290196  RH  045%=      5-min Rain = 0
KWE1 201623Z 20013KT 33/20 A2991 RMK A01 T03290198  RH  046%=      5-min Rain = 0
KWE1 201624Z 20015KT 33/20 A2991 RMK A01 T03310199  RH  046%=      5-min Rain = 0
KWE1 201625Z 18018KT 33/20 A2991 RMK A01 T03330198  RH  045%=      5-min Rain = 0
KWE1 201626Z 19016KT 33/20 A2991 RMK A01 T03330197  RH  045%=      5-min Rain = 0
KWE1 201627Z 20016KT 33/20 A2991 RMK A01 T03330197  RH  045%=      5-min Rain = 0
KWE1 201628Z 20015KT 33/20 A2991 RMK A01 T03310197  RH  045%=      5-min Rain = 0
KWE1 201629Z 20015KT 33/20 A2991 RMK A01 T03300198  RH  046%=      5-min Rain = 0
KWE1 201630Z 20014KT 33/20 A2991 RMK A01 T03300200  RH  046%=      5-min Rain = 0
KWE1 201631Z 19018KT 33/20 A2991 RMK A01 T03340198  RH  045%=      5-min Rain = 0
KWE1 201632Z 20015KT 34/20 A2991 RMK A01 T03350196  RH  044%=      5-min Rain = 0
KWE1 201633Z 20014KT 34/20 A2991 RMK A01 T03350197  RH  044%=      5-min Rain = 0
KWE1 201634Z 20016KT 34/20 A2991 RMK A01 T03350197  RH  044%=      5-min Rain = 0
KWE1 201635Z 21016KT 33/19 A2991 RMK A01 T03340194  RH  044%=      5-min Rain = 0
KWE1 201636Z 20015KT 33/19 A2991 RMK A01 T03330193  RH  044%=      5-min Rain = 0
KWE1 201637Z 20015KT 33/19 A2991 RMK A01 T03330193  RH  044%=      5-min Rain = 0
KWE1 201638Z 20015KT 33/19 A2991 RMK A01 T03330194  RH  044%=      5-min Rain = 0
KWE1 201639Z 21016KT 33/19 A2991 RMK A01 T03330194  RH  044%=      5-min Rain = 0
KWE1 201640Z 21016KT 33/19 A2991 RMK A01 T03330193  RH  044%=      5-min Rain = 0
KWE1 201641Z 21016KT 33/19 A2991 RMK A01 T03330193  RH  044%=      5-min Rain = 0
KWE1 201642Z 20014KT 34/19 A2991 RMK A01 T03350194  RH  044%=      5-min Rain = 0
KWE1 201643Z 20015KT 34/20 A2991 RMK A01 T03360195  RH  043%=      5-min Rain = 0
KWE1 201644Z 21016KT 34/19 A2991 RMK A01 T03360194  RH  043%=      5-min Rain = 0
KWE1 201645Z 21017KT 34/19 A2991 RMK A01 T03360193  RH  043%=      5-min Rain = 0
KWE1 201646Z 21013KT 34/20 A2991 RMK A01 T03360196  RH  044%=      5-min Rain = 0
KWE1 201647Z 21015KT 34/20 A2991 RMK A01 T03390199  RH  044%=      5-min Rain = 0
KWE1 201648Z 21014KT 34/20 A2991 RMK A01 T03400197  RH  043%=      5-min Rain = 0
KWE1 201649Z 20017KT 34/20 A2991 RMK A01 T03400196  RH  043%=      5-min Rain = 0
KWE1 201650Z 20017KT 34/19 A2991 RMK A01 T03400194  RH  042%=      5-min Rain = 0
KWE1 201651Z 20015KT 34/20 A2991 RMK A01 T03400195  RH  042%=      5-min Rain = 0
KWE1 201652Z 20010KT 34/20 A2991 RMK A01 T03400195  RH  043%=      5-min Rain = 0
KWE1 201653Z 20013KT 34/20 A299 RMK A01 T03410197  RH  043%=      5-min Rain = 0
KWE1 201654Z 18015G21KT 34/20 A2991 RMK A01 T03420198  RH  043%=      5-min Rain = 0
KWE1 201655Z 18012KT 34/20 A2991 RMK A01 T03410201  RH  044%=      5-min Rain = 0
KWE1 201656Z 19010G15KT 34/20 A2991 RMK A01 T03430199  RH  043%=      5-min Rain = 0
KWE1 201657Z 18013KT 34/20 A299 RMK A01 T03430200  RH  043%=      5-min Rain = 0
KWE1 201658Z 18014KT 35/20 A299 RMK A01 T03450199  RH  042%=      5-min Rain = 0
KWE1 201659Z 20013KT 35/20 A299 RMK A01 T03450197  RH  042%=      5-min Rain = 0
KWE1 201700Z 20015KT 35/20 A299 RMK A01 T03450195  RH  041%=      5-min Rain = 0
KWE1 201701Z 21014KT 35/20 A299 RMK A01 T03450195  RH  041%=      5-min Rain = 0
KWE1 201702Z 20014KT 34/20 A299 RMK A01 T03440197  RH  042%=      5-min Rain = 0
KWE1 201703Z 20015KT 34/20 A299 RMK A01 T03440198  RH  042%=      5-min Rain = 0
KWE1 201704Z 20015KT 34/20 A299 RMK A01 T03440198  RH  042%=      5-min Rain = 0
KWE1 201705Z 19018KT 34/20 A299 RMK A01 T03440196  RH  042%=      5-min Rain = 0
KWE1 201706Z 19015KT 34/20 A299 RMK A01 T03430196  RH  042%=      5-min Rain = 0
KWE1 201707Z 19013KT 34/20 A299 RMK A01 T03440197  RH  042%=      5-min Rain = 0
KWE1 201708Z 16015KT 34/20 A299 RMK A01 T03430197  RH  042%=      5-min Rain = 0
KWE1 201709Z 18016KT 35/20 A299 RMK A01 T03450198  RH  042%=      5-min Rain = 0
KWE1 201710Z 19017KT 35/20 A299 RMK A01 T03480195  RH  041%=      5-min Rain = 0
KWE1 201711Z 19014KT 35/20 A299 RMK A01 T03480195  RH  041%=      5-min Rain = 0
KWE1 201712Z 20015KT 35/20 A299 RMK A01 T03480196  RH  041%=      5-min Rain = 0
KWE1 201713Z 20013KT 35/20 A299 RMK A01 T03450195  RH  041%=      5-min Rain = 0
KWE1 201714Z 17014KT 34/20 A299 RMK A01 T03440198  RH  042%=      5-min Rain = 0
KWE1 201715Z 18010KT 35/20 A299 RMK A01 T03460199  RH  042%=      5-min Rain = 0
KWE1 201716Z 19014G19KT 35/20 A299 RMK A01 T03480199  RH  042%=      5-min Rain = 0
KWE1 201717Z 18015G20KT 35/20 A299 RMK A01 T03490197  RH  041%=      5-min Rain = 0
KWE1 201718Z 19016KT 35/20 A299 RMK A01 T03500198  RH  041%=      5-min Rain = 0
KWE1 201719Z 20014KT 35/19 A299 RMK A01 T03500194  RH  040%=      5-min Rain = 0
KWE1 201720Z 20012KT 35/19 A299 RMK A01 T03470194  RH  041%=      5-min Rain = 0
KWE1 201721Z 18013KT 35/20 A299 RMK A01 T03460198  RH  042%=      5-min Rain = 0
KWE1 201722Z 18015KT 35/20 A299 RMK A01 T03490196  RH  041%=      5-min Rain = 0
KWE1 201723Z 18013G18KT 35/20 A299 RMK A01 T03490195  RH  040%=      5-min Rain = 0
KWE1 201724Z 19016KT 35/20 A299 RMK A01 T03510197  RH  040%=      5-min Rain = 0
KWE1 201725Z 18012KT 35/19 A299 RMK A01 T03530194  RH  039%=      5-min Rain = 0
KWE1 201726Z 18013KT 35/20 A299 RMK A01 T03530199  RH  041%=      5-min Rain = 0
KWE1 201727Z 17016KT 35/19 A299 RMK A01 T03540194  RH  039%=      5-min Rain = 0
KWE1 201728Z 17015G20KT 35/19 A299 RMK A01 T03530194  RH  039%=      5-min Rain = 0
KWE1 201729Z 18013KT 35/20 A299 RMK A01 T03530195  RH  040%=      5-min Rain = 0
KWE1 201730Z 18016KT 35/19 A299 RMK A01 T03520194  RH  040%=      5-min Rain = 0
KWE1 201731Z 17018KT 35/19 A299 RMK A01 T03510193  RH  039%=      5-min Rain = 0
KWE1 201732Z 17013G18KT 35/19 A299 RMK A01 T03510191  RH  039%=      5-min Rain = 0
KWE1 201733Z 17015KT 35/19 A299 RMK A01 T03500193  RH  040%=      5-min Rain = 0
KWE1 201734Z 17018KT 35/19 A299 RMK A01 T03530193  RH  039%=      5-min Rain = 0
KWE1 201735Z 17018KT 36/19 A299 RMK A01 T03560193  RH  038%=      5-min Rain = 0
KWE1 201736Z 17016KT 36/19 A299 RMK A01 T03570190  RH  038%=      5-min Rain = 0
KWE1 201737Z 18015G20KT 36/19 A299 RMK A01 T03550192  RH  038%=      5-min Rain = 0
KWE1 201738Z 17017KT 35/19 A299 RMK A01 T03540190  RH  038%=      5-min Rain = 0
KWE1 201739Z 17014KT 35/19 A299 RMK A01 T03520189  RH  038%=      5-min Rain = 0
KWE1 201740Z 18015KT 35/19 A299 RMK A01 T03510192  RH  039%=      5-min Rain = 0
KWE1 201741Z 17013KT 35/19 A299 RMK A01 T03520191  RH  039%=      5-min Rain = 0
KWE1 201742Z 17011KT 35/19 A299 RMK A01 T03540193  RH  039%=      5-min Rain = 0
KWE1 201743Z 18014KT 36/19 A299 RMK A01 T03560194  RH  039%=      5-min Rain = 0
KWE1 201744Z 18015KT 36/20 A299 RMK A01 T03560195  RH  039%=      5-min Rain = 0
KWE1 201745Z 19011G16KT 36/19 A299 RMK A01 T03570192  RH  038%=      5-min Rain = 0
KWE1 201746Z 17012KT 36/20 A299 RMK A01 T03560195  RH  039%=      5-min Rain = 0
KWE1 201747Z 18015KT 36/19 A299 RMK A01 T03570193  RH  038%=      5-min Rain = 0
KWE1 201748Z 18017KT 36/19 A299 RMK A01 T03580191  RH  038%=      5-min Rain = 0
KWE1 201749Z 17016KT 36/19 A299 RMK A01 T03570190  RH  037%=      5-min Rain = 0
KWE1 201750Z 17017KT 36/19 A299 RMK A01 T03570190  RH  037%=      5-min Rain = 0
KWE1 201751Z 17013KT 36/19 A299 RMK A01 T03570190  RH  037%=      5-min Rain = 0
KWE1 201752Z 19013KT 36/19 A299 RMK A01 T03580192  RH  038%=      5-min Rain = 0
KWE1 201753Z 19016KT 36/19 A299 RMK A01 T03580191  RH  038%=      5-min Rain = 0
KWE1 201754Z 19017KT 36/19 A299 RMK A01 T03560191  RH  038%=      5-min Rain = 0
KWE1 201755Z 19014KT 36/19 A299 RMK A01 T03550190  RH  038%=      5-min Rain = 0
KWE1 201756Z 19017G24KT 35/19 A299 RMK A01 T03540192  RH  039%=      5-min Rain = 0
KWE1 201757Z 19017KT 36/19 A299 RMK A01 T03560191  RH  038%=      5-min Rain = 0
KWE1 201758Z 19016KT 36/19 A299 RMK A01 T03550190  RH  038%=      5-min Rain = 0
KWE1 201759Z 18017KT 36/19 A299 RMK A01 T03550191  RH  038%=      5-min Rain = 0
KWE1 201800Z 18015KT 36/19 A299 RMK A01 T03560191  RH  038%=      5-min Rain = 0
KWE1 201801Z 18016KT 36/19 A299 RMK A01 T03560189  RH  037%=      5-min Rain = 0
KWE1 201802Z 19018KT 36/19 A299 RMK A01 T03580191  RH  038%=      5-min Rain = 0
KWE1 201803Z 19015KT 36/19 A299 RMK A01 T03610189  RH  036%=      5-min Rain = 0
KWE1 201804Z 20015KT 36/19 A299 RMK A01 T03600188  RH  036%=      5-min Rain = 0
KWE1 201805Z 19014KT 36/19 A299 RMK A01 T03570187  RH  037%=      5-min Rain = 0
KWE1 201806Z 19019KT 36/19 A299 RMK A01 T03570188  RH  037%=      5-min Rain = 0
KWE1 201807Z 18019KT 36/18 A299 RMK A01 T03590183  RH  036%=      5-min Rain = 0
KWE1 201808Z 18018KT 36/18 A299 RMK A01 T03590184  RH  036%=      5-min Rain = 0
KWE1 201809Z 18015KT 36/19 A299 RMK A01 T03580185  RH  036%=      5-min Rain = 0
KWE1 201810Z 19014G19KT 36/19 A299 RMK A01 T03560188  RH  037%=      5-min Rain = 0
KWE1 201811Z 18014KT 36/19 A299 RMK A01 T03560192  RH  038%=      5-min Rain = 0
KWE1 201812Z 17012KT 36/19 A299 RMK A01 T03580192  RH  038%=      5-min Rain = 0
KWE1 201813Z 17011KT 36/19 A299 RMK A01 T03600190  RH  037%=      5-min Rain = 0
KWE1 201814Z 18014G22KT 36/19 A299 RMK A01 T03610192  RH  037%=      5-min Rain = 0
KWE1 201815Z 19018KT 36/19 A299 RMK A01 T03630190  RH  036%=      5-min Rain = 0
KWE1 201816Z 20017KT 36/19 A299 RMK A01 T03620187  RH  036%=      5-min Rain = 0
KWE1 201817Z 18012G19KT 36/19 A299 RMK A01 T03590186  RH  036%=      5-min Rain = 0
KWE1 201818Z 18015G20KT 36/19 A299 RMK A01 T03590191  RH  037%=      5-min Rain = 0
KWE1 201819Z 18017KT 36/19 A299 RMK A01 T03610187  RH  036%=      5-min Rain = 0
KWE1 201820Z 20015KT 36/19 A299 RMK A01 T03620188  RH  036%=      5-min Rain = 0
KWE1 201821Z 20015KT 36/19 A299 RMK A01 T03610189  RH  037%=      5-min Rain = 0
KWE1 201822Z 18013KT 36/19 A299 RMK A01 T03600190  RH  037%=      5-min Rain = 0
KWE1 201823Z 18015G20KT 36/19 A299 RMK A01 T03600192  RH  037%=      5-min Rain = 0
KWE1 201824Z 17018KT 36/19 A299 RMK A01 T03630192  RH  037%=      5-min Rain = 0
KWE1 201825Z 15013KT 36/19 A299 RMK A01 T03630190  RH  036%=      5-min Rain = 0
KWE1 201826Z 15011G16KT 36/19 A2989 RMK A01 T03630192  RH  037%=      5-min Rain = 0
KWE1 201827Z 17018G23KT 37/19 A2989 RMK A01 T03650192  RH  036%=      5-min Rain = 0
KWE1 201828Z 17017KT 37/19 A299 RMK A01 T03650188  RH  035%=      5-min Rain = 0
KWE1 201829Z 17017KT 36/19 A2989 RMK A01 T03630190  RH  036%=      5-min Rain = 0
KWE1 201830Z 17015KT 36/19 A2989 RMK A01 T03630191  RH  036%=      5-min Rain = 0
KWE1 201831Z 16014KT 36/19 A2989 RMK A01 T03630188  RH  036%=      5-min Rain = 0
KWE1 201832Z 17011KT 36/19 A2989 RMK A01 T03610188  RH  036%=      5-min Rain = 0
KWE1 201833Z 19010G15KT 36/19 A2989 RMK A01 T03620194  RH  037%=      5-min Rain = 0
KWE1 201834Z 17014G20KT 37/19 A2989 RMK A01 T03670194  RH  036%=      5-min Rain = 0
KWE1 201835Z 18015G20KT 37/19 A2989 RMK A01 T03690189  RH  035%=      5-min Rain = 0
KWE1 201836Z 17018KT 37/19 A2989 RMK A01 T03680189  RH  035%=      5-min Rain = 0
KWE1 201837Z 17014KT 37/19 A2989 RMK A01 T03670188  RH  035%=      5-min Rain = 0
KWE1 201838Z 18014G19KT 37/19 A2989 RMK A01 T03670192  RH  036%=      5-min Rain = 0
KWE1 201839Z 18016KT 37/19 A2989 RMK A01 T03670189  RH  035%=      5-min Rain = 0
KWE1 201840Z 18013KT 37/19 A2989 RMK A01 T03650187  RH  035%=      5-min Rain = 0
KWE1 201841Z 19012G20KT 36/19 A2989 RMK A01 T03630189  RH  036%=      5-min Rain = 0
KWE1 201842Z 18019KT 36/19 A2989 RMK A01 T03630187  RH  036%=      5-min Rain = 0
KWE1 201843Z 17018KT 36/18 A2989 RMK A01 T03640184  RH  035%=      5-min Rain = 0
KWE1 201844Z 16016KT 36/18 A2989 RMK A01 T03640184  RH  035%=      5-min Rain = 0
KWE1 201845Z 18014KT 36/18 A2989 RMK A01 T03640184  RH  035%=      5-min Rain = 0
KWE1 201846Z 18013KT 37/19 A2988 RMK A01 T03650188  RH  035%=      5-min Rain = 0
KWE1 201847Z 18015KT 37/19 A2988 RMK A01 T03650188  RH  036%=      5-min Rain = 0
KWE1 201848Z 17012KT 37/19 A2988 RMK A01 T03660189  RH  035%=      5-min Rain = 0
KWE1 201849Z 17012KT 37/19 A2988 RMK A01 T03670189  RH  035%=      5-min Rain = 0
KWE1 201850Z 18015KT 37/19 A2988 RMK A01 T03670189  RH  035%=      5-min Rain = 0
KWE1 201851Z 17015KT 37/19 A2988 RMK A01 T03690187  RH  034%=      5-min Rain = 0
KWE1 201852Z 17013KT 37/19 A2988 RMK A01 T03670189  RH  035%=      5-min Rain = 0
KWE1 201853Z 17013G19KT 37/19 A2988 RMK A01 T03660190  RH  036%=      5-min Rain = 0
KWE1 201854Z 18016G21KT 37/19 A2988 RMK A01 T03660190  RH  036%=      5-min Rain = 0
KWE1 201855Z 17016G21KT 37/19 A2988 RMK A01 T03690190  RH  035%=      5-min Rain = 0
KWE1 201856Z 17019G25KT 37/19 A2988 RMK A01 T03710187  RH  034%=      5-min Rain = 0
KWE1 201857Z 17017G22KT 37/19 A2988 RMK A01 T03710190  RH  035%=      5-min Rain = 0
KWE1 201858Z 17017G22KT 37/19 A2988 RMK A01 T03710185  RH  034%=      5-min Rain = 0
KWE1 201859Z 18016G21KT 37/19 A2988 RMK A01 T03720189  RH  034%=      5-min Rain = 0
KWE1 201900Z 18016KT 37/19 A2988 RMK A01 T03740187  RH  033%=      5-min Rain = 0
KWE1 201901Z 18015G21KT 37/19 A2988 RMK A01 T03730186  RH  033%=      5-min Rain = 0
KWE1 201902Z 17011KT 37/19 A2988 RMK A01 T03690185  RH  034%=      5-min Rain = 0
KWE1 201903Z 15015KT 37/19 A2988 RMK A01 T03680188  RH  035%=      5-min Rain = 0
KWE1 201904Z 16016KT 37/19 A2988 RMK A01 T03680186  RH  034%=      5-min Rain = 0
KWE1 201905Z 18017KT 37/19 A2988 RMK A01 T03690188  RH  035%=      5-min Rain = 0
KWE1 201906Z 18014KT 37/19 A2988 RMK A01 T03710191  RH  035%=      5-min Rain = 0
KWE1 201907Z 17013KT 37/19 A2988 RMK A01 T03730190  RH  034%=      5-min Rain = 0
KWE1 201908Z 16013KT 37/19 A2988 RMK A01 T03730188  RH  034%=      5-min Rain = 0
KWE1 201909Z 17009KT 37/19 A2988 RMK A01 T03710190  RH  035%=      5-min Rain = 0
KWE1 201910Z 19012G20KT 37/19 A2987 RMK A01 T03730194  RH  035%=      5-min Rain = 0
KWE1 201911Z 18018KT 38/19 A2987 RMK A01 T03760189  RH  034%=      5-min Rain = 0
KWE1 201912Z 18016KT 38/19 A2987 RMK A01 T03750187  RH  033%=      5-min Rain = 0
KWE1 201913Z 18014KT 37/19 A2987 RMK A01 T03740188  RH  034%=      5-min Rain = 0
KWE1 201914Z 17017KT 37/19 A2987 RMK A01 T03730187  RH  034%=      5-min Rain = 0
KWE1 201915Z 16016KT 37/19 A2987 RMK A01 T03730187  RH  034%=      5-min Rain = 0
KWE1 201916Z 16015KT 37/18 A2987 RMK A01 T03740184  RH  033%=      5-min Rain = 0
KWE1 201917Z 15015G20KT 37/18 A2987 RMK A01 T03720184  RH  033%=      5-min Rain = 0
KWE1 201918Z 14015KT 37/18 A2987 RMK A01 T03710180  RH  033%=      5-min Rain = 0
KWE1 201919Z 15015KT 37/18 A2987 RMK A01 T03690183  RH  034%=      5-min Rain = 0
KWE1 201920Z 16015G26KT 37/18 A2986 RMK A01 T03700184  RH  034%=      5-min Rain = 0
KWE1 201921Z 20016G23KT 37/19 A2986 RMK A01 T03730185  RH  033%=      5-min Rain = 0
KWE1 201922Z 19017KT 37/19 A2987 RMK A01 T03730185  RH  033%=      5-min Rain = 0
KWE1 201923Z 19014G19KT 37/18 A2987 RMK A01 T03730184  RH  033%=      5-min Rain = 0
KWE1 201924Z 18017KT 37/18 A2987 RMK A01 T03720182  RH  033%=      5-min Rain = 0
KWE1 201925Z 18016G21KT 37/18 A2987 RMK A01 T03730182  RH  033%=      5-min Rain = 0
KWE1 201926Z 18018KT 37/18 A2987 RMK A01 T03730183  RH  033%=      5-min Rain = 0
KWE1 201927Z 18017KT 37/18 A2987 RMK A01 T03730184  RH  033%=      5-min Rain = 0
KWE1 201928Z 17017KT 37/18 A2986 RMK A01 T03720184  RH  033%=      5-min Rain = 0
KWE1 201929Z 18012KT 37/19 A2986 RMK A01 T03720186  RH  034%=      5-min Rain = 0
KWE1 201930Z 18016KT 37/19 A2986 RMK A01 T03740188  RH  034%=      5-min Rain = 0
KWE1 201931Z 19017G23KT 38/19 A2986 RMK A01 T03750185  RH  033%=      5-min Rain = 0
KWE1 201932Z 17015G20KT 37/18 A2986 RMK A01 T03740182  RH  033%=      5-min Rain = 0
KWE1 201933Z 15014G19KT 37/19 A2986 RMK A01 T03730185  RH  033%=      5-min Rain = 0
KWE1 201934Z 15018KT 38/18 A2986 RMK A01 T03750181  RH  032%=      5-min Rain = 0
KWE1 201935Z 18019KT 38/18 A2986 RMK A01 T03760182  RH  032%=      5-min Rain = 0
KWE1 201936Z 17013KT 38/19 A2986 RMK A01 T03780186  RH  033%=      5-min Rain = 0
KWE1 201937Z 18015KT 38/18 A2986 RMK A01 T03820184  RH  032%=      5-min Rain = 0
KWE1 201938Z 18018KT 38/18 A2986 RMK A01 T03840180  RH  031%=      5-min Rain = 0
KWE1 201939Z 18015KT 38/18 A2986 RMK A01 T03810175  RH  030%=      5-min Rain = 0
KWE1 201940Z 17013G18KT 38/18 A2986 RMK A01 T03770180  RH  031%=      5-min Rain = 0
KWE1 201941Z 16013KT 38/18 A2986 RMK A01 T03770180  RH  032%=      5-min Rain = 0
KWE1 201942Z 15018G24KT 38/18 A2986 RMK A01 T03770180  RH  032%=      5-min Rain = 0
KWE1 201943Z 17015G21KT 38/18 A2986 RMK A01 T03770182  RH  032%=      5-min Rain = 0
KWE1 201944Z 17019KT 38/18 A2986 RMK A01 T03780181  RH  032%=      5-min Rain = 0
KWE1 201945Z 18016KT 38/18 A2986 RMK A01 T03780179  RH  031%=      5-min Rain = 0
KWE1 201946Z 18018G23KT 38/18 A2986 RMK A01 T03770178  RH  031%=      5-min Rain = 0
KWE1 201947Z 17017KT 38/18 A2986 RMK A01 T03750178  RH  032%=      5-min Rain = 0
KWE1 201948Z 16016KT 37/18 A2986 RMK A01 T03740179  RH  032%=      5-min Rain = 0
KWE1 201949Z 16017KT 37/18 A2986 RMK A01 T03730175  RH  031%=      5-min Rain = 0
KWE1 201950Z 17016KT 37/18 A2986 RMK A01 T03740177  RH  031%=      5-min Rain = 0
KWE1 201951Z 17014G20KT 38/18 A2986 RMK A01 T03770179  RH  032%=      5-min Rain = 0
KWE1 201952Z 18012KT 38/19 A2986 RMK A01 T03810187  RH  032%=      5-min Rain = 0
KWE1 201953Z 17015KT 38/19 A2986 RMK A01 T03840185  RH  031%=      5-min Rain = 0
KWE1 201954Z 16017KT 38/18 A2986 RMK A01 T03830178  RH  030%=      5-min Rain = 0
KWE1 201955Z 18019KT 38/18 A2986 RMK A01 T03800177  RH  031%=      5-min Rain = 0
KWE1 201956Z 18015KT 38/17 A2986 RMK A01 T03780174  RH  030%=      5-min Rain = 0
KWE1 201957Z 19018G23KT 38/18 A2985 RMK A01 T03760176  RH  031%=      5-min Rain = 0
KWE1 201958Z 17014KT 38/18 A2985 RMK A01 T03750179  RH  032%=      5-min Rain = 0
KWE1 201959Z 16017KT 38/18 A2985 RMK A01 T03760177  RH  031%=      5-min Rain = 0
KWE1 202000Z 17016G21KT 38/18 A2985 RMK A01 T03750180  RH  032%=      5-min Rain = 0
KWE1 202001Z 18015KT 38/18 A2985 RMK A01 T03750183  RH  033%=      5-min Rain = 0
KWE1 202002Z 18015KT 38/18 A2985 RMK A01 T03760182  RH  032%=      5-min Rain = 0
KWE1 202003Z 18011KT 38/18 A2985 RMK A01 T03760184  RH  033%=      5-min Rain = 0
KWE1 202004Z 16014KT 38/19 A2985 RMK A01 T03780186  RH  033%=      5-min Rain = 0
KWE1 202005Z 17013G18KT 38/19 A2985 RMK A01 T03820185  RH  032%=      5-min Rain = 0
KWE1 202006Z 15017KT 38/18 A2985 RMK A01 T03840180  RH  030%=      5-min Rain = 0
KWE1 202007Z 15016KT 38/18 A2985 RMK A01 T03810176  RH  030%=      5-min Rain = 0
KWE1 202008Z 15015KT 38/17 A2985 RMK A01 T03770174  RH  031%=      5-min Rain = 0
KWE1 202009Z 18016KT 38/18 A2985 RMK A01 T03760177  RH  031%=      5-min Rain = 0
KWE1 202010Z 18016G21KT 38/18 A2985 RMK A01 T03770176  RH  031%=      5-min Rain = 0
KWE1 202011Z 17015KT 38/18 A2985 RMK A01 T03780179  RH  031%=      5-min Rain = 0
KWE1 202012Z 16015G21KT 38/18 A2985 RMK A01 T03800182  RH  031%=      5-min Rain = 0
KWE1 202013Z 17015KT 38/18 A2985 RMK A01 T03820182  RH  031%=      5-min Rain = 0
KWE1 202014Z 18015KT 38/18 A2985 RMK A01 T03800184  RH  032%=      5-min Rain = 0
KWE1 202015Z 19016G21KT 38/18 A2985 RMK A01 T03800178  RH  031%=      5-min Rain = 0
KWE1 202016Z 19014KT 38/18 A2985 RMK A01 T03800178  RH  031%=      5-min Rain = 0
KWE1 202017Z 19014KT 38/18 A2985 RMK A01 T03800179  RH  031%=      5-min Rain = 0
KWE1 202018Z 18015KT 38/18 A2985 RMK A01 T03820179  RH  031%=      5-min Rain = 0
KWE1 202019Z 18015G21KT 38/18 A2985 RMK A01 T03820178  RH  030%=      5-min Rain = 0
KWE1 202020Z 20014G20KT 38/17 A2985 RMK A01 T03810173  RH  029%=      5-min Rain = 0
KWE1 202021Z 18012KT 38/18 A2985 RMK A01 T03790177  RH  031%=      5-min Rain = 0
KWE1 202022Z 16017KT 38/18 A2985 RMK A01 T03800176  RH  030%=      5-min Rain = 0
KWE1 202023Z 17015G20KT 38/17 A2985 RMK A01 T03810170  RH  029%=      5-min Rain = 0
KWE1 202024Z 19013KT 38/18 A2985 RMK A01 T03800176  RH  030%=      5-min Rain = 0
KWE1 202025Z 19019KT 38/18 A2985 RMK A01 T03810176  RH  030%=      5-min Rain = 0
KWE1 202026Z 19016G21KT 38/17 A2985 RMK A01 T03800171  RH  029%=      5-min Rain = 0
KWE1 202027Z 18016KT 38/17 A2985 RMK A01 T03810169  RH  029%=      5-min Rain = 0
KWE1 202028Z 17014KT 38/17 A2985 RMK A01 T03810165  RH  028%=      5-min Rain = 0
KWE1 202029Z 16016KT 38/17 A2985 RMK A01 T03810173  RH  030%=      5-min Rain = 0
KWE1 202030Z 15013G18KT 38/17 A2985 RMK A01 T03810174  RH  030%=      5-min Rain = 0
KWE1 202031Z 16010KT 38/18 A2985 RMK A01 T03780176  RH  031%=      5-min Rain = 0
KWE1 202032Z 18013KT 38/18 A2985 RMK A01 T03780179  RH  031%=      5-min Rain = 0
KWE1 202033Z 18012KT 38/18 A2985 RMK A01 T03800181  RH  031%=      5-min Rain = 0
KWE1 202034Z 20016KT 38/18 A2985 RMK A01 T03830180  RH  031%=      5-min Rain = 0
KWE1 202035Z 19017KT 38/17 A2985 RMK A01 T03830172  RH  029%=      5-min Rain = 0
KWE1 202036Z 19017KT 38/17 A2985 RMK A01 T03820173  RH  029%=      5-min Rain = 0
KWE1 202037Z 19013KT 38/17 A2985 RMK A01 T03800169  RH  029%=      5-min Rain = 0
KWE1 202038Z 17012KT 38/17 A2985 RMK A01 T03790168  RH  029%=      5-min Rain = 0
KWE1 202039Z 19012KT 38/17 A2985 RMK A01 T03800169  RH  029%=      5-min Rain = 0
KWE1 202040Z 19015G21KT 38/17 A2985 RMK A01 T03820169  RH  029%=      5-min Rain = 0
KWE1 202041Z 19012KT 38/17 A2985 RMK A01 T03830170  RH  029%=      5-min Rain = 0
KWE1 202042Z 17010KT 38/17 A2985 RMK A01 T03830172  RH  029%=      5-min Rain = 0
KWE1 202043Z 16011KT 38/18 A2985 RMK A01 T03840177  RH  030%=      5-min Rain = 0
KWE1 202044Z 17010KT 38/18 A2985 RMK A01 T03840182  RH  031%=      5-min Rain = 0
KWE1 202045Z 17017G23KT 39/18 A2985 RMK A01 T03850177  RH  030%=      5-min Rain = 0
KWE1 202046Z 20017KT 38/17 A2985 RMK A01 T03840174  RH  029%=      5-min Rain = 0
KWE1 202047Z 19014KT 38/18 A2985 RMK A01 T03810179  RH  031%=      5-min Rain = 0
KWE1 202048Z 18018KT 38/18 A2985 RMK A01 T03840178  RH  030%=      5-min Rain = 0
KWE1 202049Z 19016KT 38/17 A2985 RMK A01 T03840172  RH  029%=      5-min Rain = 0
KWE1 202050Z 18014KT 38/17 A2985 RMK A01 T03820170  RH  029%=      5-min Rain = 0
KWE1 202051Z 18014KT 38/17 A2985 RMK A01 T03810171  RH  029%=      5-min Rain = 0
KWE1 202052Z 18009KT 38/17 A2985 RMK A01 T03790171  RH  029%=      5-min Rain = 0
KWE1 202053Z 16012KT 38/17 A2985 RMK A01 T03800171  RH  029%=      5-min Rain = 0
KWE1 202054Z 19013KT 38/17 A2985 RMK A01 T03810173  RH  030%=      5-min Rain = 0
KWE1 202055Z 19012KT 38/17 A2985 RMK A01 T03810172  RH  029%=      5-min Rain = 0
KWE1 202056Z 18012KT 38/17 A2984 RMK A01 T03800170  RH  029%=      5-min Rain = 0
KWE1 202057Z 18014KT 38/18 A2984 RMK A01 T03810175  RH  030%=      5-min Rain = 0
KWE1 202058Z 20014KT 38/17 A2984 RMK A01 T03840173  RH  029%=      5-min Rain = 0
KWE1 202059Z 20015KT 39/17 A2984 RMK A01 T03850174  RH  029%=      5-min Rain = 0
KWE1 202100Z 20013KT 38/17 A2984 RMK A01 T03810173  RH  030%=      5-min Rain = 0
KWE1 202101Z 17014KT 38/18 A2984 RMK A01 T03810176  RH  030%=      5-min Rain = 0
KWE1 202102Z 18012G18KT 38/17 A2984 RMK A01 T03820174  RH  030%=      5-min Rain = 0
KWE1 202103Z 18018KT 38/17 A2984 RMK A01 T03820174  RH  030%=      5-min Rain = 0
KWE1 202104Z 19016KT 38/17 A2984 RMK A01 T03820173  RH  030%=      5-min Rain = 0
KWE1 202105Z 18018KT 38/17 A2984 RMK A01 T03820173  RH  029%=      5-min Rain = 0
KWE1 202106Z 19015KT 38/17 A2984 RMK A01 T03820174  RH  030%=      5-min Rain = 0
KWE1 202107Z 19013KT 38/18 A2984 RMK A01 T03810175  RH  030%=      5-min Rain = 0
KWE1 202108Z 19014KT 38/17 A2984 RMK A01 T03800173  RH  030%=      5-min Rain = 0
KWE1 202109Z 19014KT 38/17 A2984 RMK A01 T03790170  RH  029%=      5-min Rain = 0
KWE1 202110Z 20011KT 38/17 A2984 RMK A01 T03790171  RH  030%=      5-min Rain = 0
KWE1 202111Z 19011KT 38/18 A2984 RMK A01 T03810175  RH  030%=      5-min Rain = 0
KWE1 202112Z 19014KT 38/18 A2984 RMK A01 T03830176  RH  030%=      5-min Rain = 0
KWE1 202113Z 19014G19KT 39/17 A2984 RMK A01 T03850173  RH  029%=      5-min Rain = 0
KWE1 202114Z 19018KT 39/17 A2984 RMK A01 T03850166  RH  028%=      5-min Rain = 0
KWE1 202115Z 20013KT 38/16 A2984 RMK A01 T03840164  RH  028%=      5-min Rain = 0
KWE1 202116Z 19015KT 38/16 A2984 RMK A01 T03840161  RH  027%=      5-min Rain = 0
KWE1 202117Z 17014KT 38/16 A2984 RMK A01 T03830163  RH  027%=      5-min Rain = 0
KWE1 202118Z 18017KT 39/16 A2984 RMK A01 T03850160  RH  027%=      5-min Rain = 0
KWE1 202119Z 19016KT 38/16 A2984 RMK A01 T03840155  RH  026%=      5-min Rain = 0
KWE1 202120Z 19012KT 38/15 A2984 RMK A01 T03820153  RH  026%=      5-min Rain = 0
KWE1 202121Z 20015KT 38/16 A2984 RMK A01 T03810159  RH  027%=      5-min Rain = 0
KWE1 202122Z 21016KT 38/17 A2984 RMK A01 T03800169  RH  029%=      5-min Rain = 0
KWE1 202123Z 19018KT 38/18 A2984 RMK A01 T03790177  RH  031%=      5-min Rain = 0
KWE1 202124Z 18013KT 38/18 A2984 RMK A01 T03800184  RH  032%=      5-min Rain = 0
KWE1 202125Z 18010KT 38/19 A2984 RMK A01 T03830189  RH  032%=      5-min Rain = 0
KWE1 202126Z 17014G19KT 39/19 A2984 RMK A01 T03860190  RH  032%=      5-min Rain = 0
KWE1 202127Z 16016G22KT 39/19 A2984 RMK A01 T03870186  RH  031%=      5-min Rain = 0
KWE1 202128Z 18016KT 39/19 A2984 RMK A01 T03850186  RH  031%=      5-min Rain = 0
KWE1 202129Z 17016KT 38/19 A2983 RMK A01 T03840186  RH  032%=      5-min Rain = 0
KWE1 202130Z 17018KT 38/19 A2983 RMK A01 T03840185  RH  031%=      5-min Rain = 0
KWE1 202131Z 17017KT 38/19 A2983 RMK A01 T03830186  RH  032%=      5-min Rain = 0
KWE1 202132Z 17014KT 38/19 A2983 RMK A01 T03810187  RH  032%=      5-min Rain = 0
KWE1 202133Z 18018KT 38/18 A2983 RMK A01 T03810184  RH  032%=      5-min Rain = 0
KWE1 202134Z 17017KT 38/18 A2984 RMK A01 T03810182  RH  031%=      5-min Rain = 0
KWE1 202135Z 17012KT 38/18 A2983 RMK A01 T03800183  RH  032%=      5-min Rain = 0
KWE1 202136Z 16014KT 38/18 A2983 RMK A01 T03790184  RH  032%=      5-min Rain = 0
KWE1 202137Z 16012G17KT 38/18 A2983 RMK A01 T03790184  RH  032%=      5-min Rain = 0
KWE1 202138Z 16013G22KT 38/18 A2983 RMK A01 T03790182  RH  032%=      5-min Rain = 0
KWE1 202139Z 20018G26KT 38/18 A2983 RMK A01 T03810179  RH  031%=      5-min Rain = 0
KWE1 202140Z 20015KT 38/17 A2983 RMK A01 T03810171  RH  029%=      5-min Rain = 0
KWE1 202141Z 19014KT 38/17 A2983 RMK A01 T03800169  RH  029%=      5-min Rain = 0
KWE1 202142Z 18013KT 38/17 A2983 RMK A01 T03800166  RH  028%=      5-min Rain = 0
KWE1 202143Z 20012KT 38/17 A2983 RMK A01 T03820166  RH  028%=      5-min Rain = 0
KWE1 202144Z 19012G17KT 38/17 A2983 RMK A01 T03820171  RH  029%=      5-min Rain = 0
KWE1 202145Z 17013KT 38/18 A2983 RMK A01 T03820179  RH  031%=      5-min Rain = 0
KWE1 202146Z 16014G20KT 38/18 A2983 RMK A01 T03820182  RH  031%=      5-min Rain = 0
KWE1 202147Z 18015KT 39/19 A2983 RMK A01 T03850185  RH  031%=      5-min Rain = 0
KWE1 202148Z 18012KT 38/18 A2983 RMK A01 T03840183  RH  031%=      5-min Rain = 0
KWE1 202149Z 16011KT 38/19 A2983 RMK A01 T03820186  RH  032%=      5-min Rain = 0
KWE1 202150Z 16013KT 38/19 A2983 RMK A01 T03830185  RH  032%=      5-min Rain = 0
KWE1 202151Z 15016KT 38/19 A2983 RMK A01 T03830185  RH  031%=      5-min Rain = 0
KWE1 202152Z 17014KT 38/19 A2983 RMK A01 T03830186  RH  032%=      5-min Rain = 0
KWE1 202153Z 18016KT 38/19 A2983 RMK A01 T03830187  RH  032%=      5-min Rain = 0
KWE1 202154Z 17013KT 38/19 A2983 RMK A01 T03840185  RH  032%=      5-min Rain = 0
KWE1 202155Z 16017KT 38/19 A2983 RMK A01 T03840186  RH  032%=      5-min Rain = 0
KWE1 202156Z 15016G21KT 38/18 A2983 RMK A01 T03830183  RH  031%=      5-min Rain = 0
KWE1 202157Z 17016KT 38/18 A2983 RMK A01 T03820184  RH  032%=      5-min Rain = 0
KWE1 202158Z 16016KT 38/18 A2983 RMK A01 T03820182  RH  031%=      5-min Rain = 0
KWE1 202159Z 16016KT 38/18 A2983 RMK A01 T03800182  RH  031%=      5-min Rain = 0
KWE1 202200Z 16018KT 38/18 A2983 RMK A01 T03800181  RH  031%=      5-min Rain = 0
KWE1 202201Z 15018KT 38/18 A2983 RMK A01 T03790180  RH  031%=      5-min Rain = 0
KWE1 202202Z 16016KT 38/18 A2983 RMK A01 T03800179  RH  031%=      5-min Rain = 0
KWE1 202203Z 18013KT 38/18 A2983 RMK A01 T03810182  RH  031%=      5-min Rain = 0
KWE1 202204Z 17016KT 38/18 A2983 RMK A01 T03830181  RH  031%=      5-min Rain = 0
KWE1 202205Z 16016G21KT 38/18 A2983 RMK A01 T03830182  RH  031%=      5-min Rain = 0
KWE1 202206Z 17017KT 38/18 A2982 RMK A01 T03830181  RH  031%=      5-min Rain = 0
KWE1 202207Z 17015KT 38/18 A2982 RMK A01 T03820182  RH  031%=      5-min Rain = 0
KWE1 202208Z 17017KT 38/18 A2982 RMK A01 T03820182  RH  031%=      5-min Rain = 0
KWE1 202209Z 15015KT 38/18 A2982 RMK A01 T03800181  RH  031%=      5-min Rain = 0
KWE1 202210Z 15018KT 38/18 A2982 RMK A01 T03790179  RH  031%=      5-min Rain = 0
KWE1 202211Z 16016KT 38/18 A2982 RMK A01 T03790181  RH  031%=      5-min Rain = 0
KWE1 202212Z 16015KT 38/18 A2982 RMK A01 T03800180  RH  031%=      5-min Rain = 0
KWE1 202213Z 15014KT 38/18 A2982 RMK A01 T03790179  RH  031%=      5-min Rain = 0
KWE1 202214Z 15015KT 38/18 A2982 RMK A01 T03780179  RH  031%=      5-min Rain = 0
KWE1 202215Z 15012KT 38/18 A2982 RMK A01 T03780182  RH  032%=      5-min Rain = 0
KWE1 202216Z 16014KT 38/18 A2982 RMK A01 T03810182  RH  031%=      5-min Rain = 0
KWE1 202217Z 16015KT 38/18 A2982 RMK A01 T03810182  RH  031%=      5-min Rain = 0
KWE1 202218Z 17016KT 38/18 A2982 RMK A01 T03800184  RH  032%=      5-min Rain = 0
KWE1 202219Z 17013G18KT 38/18 A2982 RMK A01 T03790182  RH  032%=      5-min Rain = 0
KWE1 202220Z 18015KT 38/18 A2982 RMK A01 T03800182  RH  032%=      5-min Rain = 0
KWE1 202221Z 17014KT 38/18 A2982 RMK A01 T03790182  RH  032%=      5-min Rain = 0
KWE1 202222Z 16016G21KT 38/18 A2982 RMK A01 T03790184  RH  032%=      5-min Rain = 0
KWE1 202223Z 15018KT 38/18 A2982 RMK A01 T03800181  RH  031%=      5-min Rain = 0
KWE1 202224Z 16017KT 38/18 A2982 RMK A01 T03800181  RH  031%=      5-min Rain = 0
KWE1 202225Z 16018KT 38/18 A2982 RMK A01 T03790181  RH  032%=      5-min Rain = 0
KWE1 202226Z 16019KT 38/18 A2982 RMK A01 T03790178  RH  031%=      5-min Rain = 0
KWE1 202227Z 17013KT 38/18 A2982 RMK A01 T03790183  RH  032%=      5-min Rain = 0
KWE1 202228Z 17016KT 38/18 A2982 RMK A01 T03810183  RH  032%=      5-min Rain = 0
KWE1 202229Z 16017G22KT 38/18 A2982 RMK A01 T03820182  RH  031%=      5-min Rain = 0
KWE1 202230Z 17017G22KT 38/18 A2982 RMK A01 T03820180  RH  031%=      5-min Rain = 0
KWE1 202231Z 16015KT 38/18 A2982 RMK A01 T03780180  RH  032%=      5-min Rain = 0
KWE1 202232Z 15016KT 38/18 A2982 RMK A01 T03770180  RH  032%=      5-min Rain = 0
KWE1 202233Z 16015KT 38/18 A2982 RMK A01 T03770181  RH  032%=      5-min Rain = 0
KWE1 202234Z 15018KT 38/18 A2982 RMK A01 T03770181  RH  032%=      5-min Rain = 0
KWE1 202235Z 17018G23KT 38/18 A2982 RMK A01 T03770181  RH  032%=      5-min Rain = 0
KWE1 202236Z 17018KT 38/18 A2982 RMK A01 T03760181  RH  032%=      5-min Rain = 0
KWE1 202237Z 16015KT 38/18 A2982 RMK A01 T03760179  RH  032%=      5-min Rain = 0
KWE1 202238Z 16018KT 38/18 A2982 RMK A01 T03760179  RH  032%=      5-min Rain = 0
KWE1 202239Z 17013KT 38/18 A2982 RMK A01 T03760177  RH  031%=      5-min Rain = 0
KWE1 202240Z 15015KT 38/18 A2982 RMK A01 T03760180  RH  032%=      5-min Rain = 0
KWE1 202241Z 15012KT 38/18 A2982 RMK A01 T03760181  RH  032%=      5-min Rain = 0
KWE1 202242Z 15011KT 38/18 A2981 RMK A01 T03770182  RH  032%=      5-min Rain = 0
KWE1 202243Z 15011G16KT 38/19 A2981 RMK A01 T03780185  RH  033%=      5-min Rain = 0
KWE1 202244Z 15016G21KT 38/18 A2981 RMK A01 T03800184  RH  032%=      5-min Rain = 0
KWE1 202245Z 16016KT 38/18 A2981 RMK A01 T03800182  RH  031%=      5-min Rain = 0
KWE1 202246Z 16015KT 38/18 A2981 RMK A01 T03790182  RH  032%=      5-min Rain = 0
KWE1 202247Z 16014KT 38/18 A2981 RMK A01 T03780183  RH  032%=      5-min Rain = 0
KWE1 202248Z 16016KT 38/18 A2981 RMK A01 T03780182  RH  032%=      5-min Rain = 0
KWE1 202249Z 15018G25KT 38/18 A2981 RMK A01 T03790181  RH  031%=      5-min Rain = 0
KWE1 202250Z 16018KT 38/18 A2981 RMK A01 T03780179  RH  031%=      5-min Rain = 0
KWE1 202251Z 15019KT 38/18 A2981 RMK A01 T03770179  RH  031%=      5-min Rain = 0
KWE1 202252Z 16018KT 38/18 A2981 RMK A01 T03770179  RH  031%=      5-min Rain = 0
KWE1 202253Z 16016G21KT 38/18 A2981 RMK A01 T03770180  RH  032%=      5-min Rain = 0
KWE1 202254Z 16017G22KT 38/18 A2981 RMK A01 T03780179  RH  031%=      5-min Rain = 0
KWE1 202255Z 17015KT 38/18 A2981 RMK A01 T03770182  RH  032%=      5-min Rain = 0
KWE1 202256Z 17015KT 38/18 A2981 RMK A01 T03780182  RH  032%=      5-min Rain = 0
KWE1 202257Z 17014KT 38/18 A2981 RMK A01 T03780181  RH  032%=      5-min Rain = 0
KWE1 202258Z 16016KT 38/18 A2981 RMK A01 T03780180  RH  031%=      5-min Rain = 0
KWE1 202259Z 16018KT 38/18 A2981 RMK A01 T03780181  RH  032%=      5-min Rain = 0
KWE1 202300Z 16016KT 38/18 A2981 RMK A01 T03780182  RH  032%=      5-min Rain = 0
KWE1 202301Z 17013G18KT 38/18 A2981 RMK A01 T03780183  RH  032%=      5-min Rain = 0
KWE1 202302Z 16018G23KT 38/18 A2981 RMK A01 T03780182  RH  032%=      5-min Rain = 0
KWE1 202303Z 16019KT 38/18 A2981 RMK A01 T03780179  RH  031%=      5-min Rain = 0
KWE1 202304Z 16015KT 38/18 A2981 RMK A01 T03760179  RH  032%=      5-min Rain = 0
KWE1 202305Z 17016KT 38/18 A2981 RMK A01 T03760180  RH  032%=      5-min Rain = 0
KWE1 202306Z 15017KT 38/18 A2981 RMK A01 T03760177  RH  031%=      5-min Rain = 0
KWE1 202307Z 16018KT 38/18 A2981 RMK A01 T03760177  RH  031%=      5-min Rain = 0
KWE1 202308Z 17020KT 38/18 A2981 RMK A01 T03760177  RH  031%=      5-min Rain = 0
KWE1 202309Z 17020KT 38/18 A2981 RMK A01 T03760177  RH  031%=      5-min Rain = 0
KWE1 202310Z 17019KT 37/18 A2981 RMK A01 T03740177  RH  032%=      5-min Rain = 0
KWE1 202311Z 18017KT 37/18 A2981 RMK A01 T03740178  RH  032%=      5-min Rain = 0
KWE1 202312Z 17018G23KT 37/18 A2981 RMK A01 T03740178  RH  032%=      5-min Rain = 0
KWE1 202313Z 17018KT 37/18 A2981 RMK A01 T03740179  RH  032%=      5-min Rain = 0
KWE1 202314Z 16016KT 37/18 A2981 RMK A01 T03740178  RH  032%=      5-min Rain = 0
KWE1 202315Z 16015KT 37/18 A2981 RMK A01 T03730178  RH  032%=      5-min Rain = 0
KWE1 202316Z 16017KT 37/18 A2981 RMK A01 T03730178  RH  032%=      5-min Rain = 0
KWE1 202317Z 17017KT 37/18 A2981 RMK A01 T03720178  RH  032%=      5-min Rain = 0
KWE1 202318Z 16016KT 37/18 A2981 RMK A01 T03720179  RH  032%=      5-min Rain = 0
KWE1 202319Z 16016KT 37/18 A2981 RMK A01 T03720179  RH  032%=      5-min Rain = 0
KWE1 202320Z 16013KT 37/18 A2981 RMK A01 T03720179  RH  032%=      5-min Rain = 0
KWE1 202321Z 16016KT 37/18 A2981 RMK A01 T03730180  RH  032%=      5-min Rain = 0
KWE1 202322Z 16012G17KT 38/18 A2981 RMK A01 T03750183  RH  033%=      5-min Rain = 0
KWE1 202323Z 17016KT 38/18 A2981 RMK A01 T03770182  RH  032%=      5-min Rain = 0
KWE1 202324Z 16015KT 38/18 A2981 RMK A01 T03760181  RH  032%=      5-min Rain = 0
KWE1 202325Z 16013KT 38/18 A2981 RMK A01 T03750181  RH  032%=      5-min Rain = 0
KWE1 202326Z 17016KT 38/18 A2981 RMK A01 T03750182  RH  032%=      5-min Rain = 0
KWE1 202327Z 16017KT 37/18 A2981 RMK A01 T03740179  RH  032%=      5-min Rain = 0
KWE1 202328Z 17016KT 37/18 A2981 RMK A01 T03740178  RH  032%=      5-min Rain = 0
KWE1 202329Z 16018KT 37/18 A2981 RMK A01 T03720178  RH  032%=      5-min Rain = 0
KWE1 202330Z 15018KT 37/18 A2981 RMK A01 T03720177  RH  032%=      5-min Rain = 0
KWE1 202331Z 15018KT 37/18 A2981 RMK A01 T03710177  RH  032%=      5-min Rain = 0
KWE1 202332Z 16017KT 37/18 A2981 RMK A01 T03710176  RH  032%=      5-min Rain = 0
KWE1 202333Z 16012KT 37/18 A2981 RMK A01 T03700177  RH  032%=      5-min Rain = 0
KWE1 202334Z 15013KT 37/18 A2981 RMK A01 T03710178  RH  032%=      5-min Rain = 0
KWE1 202335Z 16014KT 37/18 A2981 RMK A01 T03720178  RH  032%=      5-min Rain = 0
KWE1 202336Z 16017KT 37/18 A2981 RMK A01 T03730177  RH  032%=      5-min Rain = 0
KWE1 202337Z 16015KT 37/18 A2981 RMK A01 T03720178  RH  032%=      5-min Rain = 0
KWE1 202338Z 16019G24KT 37/18 A2981 RMK A01 T03720177  RH  032%=      5-min Rain = 0
KWE1 202339Z 15015G22KT 37/18 A2981 RMK A01 T03720175  RH  032%=      5-min Rain = 0
KWE1 202340Z 16015G20KT 37/18 A2981 RMK A01 T03720176  RH  032%=      5-min Rain = 0
KWE1 202341Z 15016KT 37/18 A2981 RMK A01 T03720175  RH  032%=      5-min Rain = 0
KWE1 202342Z 15013G18KT 37/18 A2981 RMK A01 T03720177  RH  032%=      5-min Rain = 0
KWE1 202343Z 15016G22KT 37/18 A2981 RMK A01 T03720177  RH  032%=      5-min Rain = 0
KWE1 202344Z 15019KT 37/17 A2981 RMK A01 T03720174  RH  031%=      5-min Rain = 0
KWE1 202345Z 15020KT 37/17 A2981 RMK A01 T03720174  RH  031%=      5-min Rain = 0
KWE1 202346Z 15017KT 37/17 A2981 RMK A01 T03700174  RH  031%=      5-min Rain = 0
KWE1 202347Z 17017KT 37/17 A2981 RMK A01 T03700174  RH  032%=      5-min Rain = 0
KWE1 202348Z 17018KT 37/18 A2981 RMK A01 T03700175  RH  032%=      5-min Rain = 0
KWE1 202349Z 17017KT 37/17 A2981 RMK A01 T03700174  RH  032%=      5-min Rain = 0
KWE1 202350Z 17015KT 37/17 A2981 RMK A01 T03700174  RH  032%=      5-min Rain = 0
KWE1 202351Z 16013KT 37/17 A2981 RMK A01 T03700174  RH  032%=      5-min Rain = 0
KWE1 202352Z 17013KT 37/17 A2981 RMK A01 T03700174  RH  032%=      5-min Rain = 0
KWE1 202353Z 15016KT 37/17 A2981 RMK A01 T03700174  RH  032%=      5-min Rain = 0
KWE1 202354Z 15018KT 37/17 A2981 RMK A01 T03700174  RH  032%=      5-min Rain = 0
KWE1 202355Z 16017KT 37/17 A2981 RMK A01 T03690173  RH  032%=      5-min Rain = 0
KWE1 202356Z 17016KT 37/18 A2981 RMK A01 T03690175  RH  032%=      5-min Rain = 0
KWE1 202357Z 16017KT 37/17 A2981 RMK A01 T03690174  RH  032%=      5-min Rain = 0
KWE1 202358Z 16013KT 37/18 A2981 RMK A01 T03690175  RH  032%=      5-min Rain = 0
KWE1 202359Z 15015KT 37/17 A2981 RMK A01 T03690173  RH  032%=      5-min Rain = 0
KWE1 210000Z 15016KT 37/17 A2981 RMK A01 T03690173  RH  032%=      5-min Rain = 0
KWE1 210001Z 15016KT 37/17 A2981 RMK A01 T03680171  RH  031%=      5-min Rain = 0
KWE1 210002Z 16014KT 37/17 A2981 RMK A01 T03680173  RH  032%=      5-min Rain = 0
KWE1 210003Z 16016KT 37/17 A2981 RMK A01 T03680173  RH  032%=      5-min Rain = 0
KWE1 210004Z 15014KT 37/17 A2981 RMK A01 T03680173  RH  032%=      5-min Rain = 0
KWE1 210005Z 16015KT 37/17 A2981 RMK A01 T03680173  RH  032%=      5-min Rain = 0
KWE1 210006Z 16015KT 37/17 A2981 RMK A01 T03680173  RH  032%=      5-min Rain = 0
KWE1 210007Z 16018KT 37/17 A2981 RMK A01 T03680173  RH  032%=      5-min Rain = 0
KWE1 210008Z 15016KT 37/17 A2981 RMK A01 T03670172  RH  032%=      5-min Rain = 0
KWE1 210009Z 16016KT 37/17 A2981 RMK A01 T03660172  RH  032%=      5-min Rain = 0
KWE1 210010Z 16016KT 37/17 A2981 RMK A01 T03660173  RH  032%=      5-min Rain = 0
KWE1 210011Z 16016G21KT 37/17 A2981 RMK A01 T03660172  RH  032%=      5-min Rain = 0
KWE1 210012Z 16017KT 37/17 A2981 RMK A01 T03660172  RH  032%=      5-min Rain = 0
KWE1 210013Z 16018KT 37/17 A2981 RMK A01 T03660172  RH  032%=      5-min Rain = 0
KWE1 210014Z 17017KT 37/17 A2981 RMK A01 T03660172  RH  032%=      5-min Rain = 0
KWE1 210015Z 17019KT 37/17 A2981 RMK A01 T03660172  RH  032%=      5-min Rain = 0
KWE1 210016Z 17018KT 37/17 A2981 RMK A01 T03650173  RH  032%=      5-min Rain = 0
KWE1 210017Z 16016KT 36/17 A2981 RMK A01 T03640173  RH  033%=      5-min Rain = 0
KWE1 210018Z 16017KT 36/17 A2981 RMK A01 T03640174  RH  033%=      5-min Rain = 0
KWE1 210019Z 16018KT 36/17 A2981 RMK A01 T03640173  RH  033%=      5-min Rain = 0
KWE1 210020Z 16015KT 36/17 A2981 RMK A01 T03640174  RH  033%=      5-min Rain = 0
KWE1 210021Z 15015KT 36/17 A2981 RMK A01 T03640174  RH  033%=      5-min Rain = 0
KWE1 210022Z 16013KT 36/17 A2981 RMK A01 T03640174  RH  033%=      5-min Rain = 0
KWE1 210023Z 15015KT 36/18 A2981 RMK A01 T03640175  RH  033%=      5-min Rain = 0
KWE1 210024Z 16014KT 36/17 A2981 RMK A01 T03640173  RH  033%=      5-min Rain = 0
KWE1 210025Z 16011KT 36/18 A2981 RMK A01 T03640175  RH  033%=      5-min Rain = 0
KWE1 210026Z 16011KT 36/18 A2981 RMK A01 T03640176  RH  033%=      5-min Rain = 0
KWE1 210027Z 17014KT 37/18 A2981 RMK A01 T03650175  RH  033%=      5-min Rain = 0
KWE1 210028Z 16018KT 36/17 A2981 RMK A01 T03640174  RH  033%=      5-min Rain = 0
KWE1 210029Z 16015KT 36/17 A2981 RMK A01 T03630174  RH  033%=      5-min Rain = 0
KWE1 210030Z 17013KT 36/17 A2981 RMK A01 T03620174  RH  033%=      5-min Rain = 0
KWE1 210031Z 16013KT 36/17 A2981 RMK A01 T03620174  RH  033%=      5-min Rain = 0
KWE1 210032Z 16012KT 36/17 A2981 RMK A01 T03620174  RH  033%=      5-min Rain = 0
KWE1 210033Z 16011KT 36/18 A2981 RMK A01 T03620175  RH  033%=      5-min Rain = 0
KWE1 210034Z 16015G20KT 36/17 A2981 RMK A01 T03620173  RH  033%=      5-min Rain = 0
KWE1 210035Z 15016KT 36/17 A2981 RMK A01 T03620171  RH  032%=      5-min Rain = 0
KWE1 210036Z 15015KT 36/17 A2981 RMK A01 T03620172  RH  033%=      5-min Rain = 0
KWE1 210037Z 16013KT 36/17 A2981 RMK A01 T03620173  RH  033%=      5-min Rain = 0
KWE1 210038Z 16012KT 36/17 A2981 RMK A01 T03620174  RH  033%=      5-min Rain = 0
KWE1 210039Z 15011KT 36/18 A2981 RMK A01 T03610175  RH  033%=      5-min Rain = 0
KWE1 210040Z 15013G18KT 36/18 A2981 RMK A01 T03610175  RH  033%=      5-min Rain = 0
KWE1 210041Z 15016KT 36/18 A2981 RMK A01 T03600175  RH  033%=      5-min Rain = 0
KWE1 210042Z 16013KT 36/18 A2981 RMK A01 T03600175  RH  034%=      5-min Rain = 0
KWE1 210043Z 15015KT 36/18 A2981 RMK A01 T03600175  RH  034%=      5-min Rain = 0
KWE1 210044Z 16014KT 36/18 A2981 RMK A01 T03590175  RH  034%=      5-min Rain = 0
KWE1 210045Z 16014KT 36/18 A2981 RMK A01 T03590175  RH  034%=      5-min Rain = 0
KWE1 210046Z 16012KT 36/18 A2981 RMK A01 T03590175  RH  034%=      5-min Rain = 0
KWE1 210047Z 16012KT 36/17 A2981 RMK A01 T03590174  RH  034%=      5-min Rain = 0
KWE1 210048Z 17011KT 36/17 A2981 RMK A01 T03590173  RH  033%=      5-min Rain = 0
KWE1 210049Z 16012KT 36/17 A2981 RMK A01 T03590172  RH  033%=      5-min Rain = 0
KWE1 210050Z 16010KT 36/17 A2981 RMK A01 T03580172  RH  033%=      5-min Rain = 0
KWE1 210051Z 16011KT 36/17 A2981 RMK A01 T03580172  RH  033%=      5-min Rain = 0
KWE1 210052Z 16013KT 36/17 A2981 RMK A01 T03580171  RH  033%=      5-min Rain = 0
KWE1 210053Z 15014KT 36/17 A2981 RMK A01 T03580170  RH  033%=      5-min Rain = 0
KWE1 210054Z 16013KT 36/17 A2981 RMK A01 T03570170  RH  033%=      5-min Rain = 0
KWE1 210055Z 16017KT 36/17 A2981 RMK A01 T03570170  RH  033%=      5-min Rain = 0
KWE1 210056Z 16015KT 36/17 A2981 RMK A01 T03570170  RH  033%=      5-min Rain = 0
KWE1 210057Z 16014KT 36/17 A2981 RMK A01 T03570170  RH  033%=      5-min Rain = 0
KWE1 210058Z 16014KT 36/17 A2981 RMK A01 T03560170  RH  033%=      5-min Rain = 0
KWE1 210059Z 15016KT 36/17 A2981 RMK A01 T03560169  RH  033%=      5-min Rain = 0
KWE1 210100Z 16016KT 36/17 A2981 RMK A01 T03550169  RH  033%=      5-min Rain = 0
KWE1 210101Z 16015KT 36/17 A2981 RMK A01 T03550169  RH  033%=      5-min Rain = 0
KWE1 210102Z 16012KT 35/17 A2981 RMK A01 T03540170  RH  034%=      5-min Rain = 0
KWE1 210103Z 16012KT 35/17 A2982 RMK A01 T03540171  RH  034%=      5-min Rain = 0
KWE1 210104Z 15012KT 35/17 A2982 RMK A01 T03540171  RH  034%=      5-min Rain = 0
KWE1 210105Z 15014KT 35/17 A2982 RMK A01 T03530171  RH  034%=      5-min Rain = 0
KWE1 210106Z 16015KT 35/17 A2981 RMK A01 T03530171  RH  034%=      5-min Rain = 0
KWE1 210107Z 16014KT 35/17 A2982 RMK A01 T03520171  RH  034%=      5-min Rain = 0
KWE1 210108Z 15014KT 35/17 A2982 RMK A01 T03520172  RH  034%=      5-min Rain = 0
KWE1 210109Z 15012KT 35/17 A2981 RMK A01 T03510171  RH  034%=      5-min Rain = 0
KWE1 210110Z 15011KT 35/17 A2981 RMK A01 T03510172  RH  035%=      5-min Rain = 0
KWE1 210111Z 15013KT 35/17 A2981 RMK A01 T03510172  RH  035%=      5-min Rain = 0
KWE1 210112Z 15012KT 35/17 A2981 RMK A01 T03500171  RH  035%=      5-min Rain = 0
KWE1 210113Z 15012KT 35/17 A2981 RMK A01 T03500171  RH  035%=      5-min Rain = 0
KWE1 210114Z 15011KT 35/17 A2981 RMK A01 T03500171  RH  035%=      5-min Rain = 0
KWE1 210115Z 15011KT 35/17 A2981 RMK A01 T03490171  RH  035%=      5-min Rain = 0
KWE1 210116Z 15012KT 35/17 A2982 RMK A01 T03490171  RH  035%=      5-min Rain = 0
KWE1 210117Z 16013KT 35/17 A2982 RMK A01 T03480171  RH  035%=      5-min Rain = 0
KWE1 210118Z 15011KT 35/17 A2982 RMK A01 T03480171  RH  035%=      5-min Rain = 0
KWE1 210119Z 15013KT 35/17 A2982 RMK A01 T03470171  RH  035%=      5-min Rain = 0
KWE1 210120Z 15011KT 35/17 A2982 RMK A01 T03470171  RH  035%=      5-min Rain = 0
KWE1 210121Z 15011KT 35/17 A2982 RMK A01 T03470170  RH  035%=      5-min Rain = 0
KWE1 210122Z 15013KT 35/17 A2982 RMK A01 T03460171  RH  035%=      5-min Rain = 0
KWE1 210123Z 15013KT 35/17 A2982 RMK A01 T03450172  RH  036%=      5-min Rain = 0
KWE1 210124Z 14012KT 34/17 A2982 RMK A01 T03440173  RH  036%=      5-min Rain = 0
KWE1 210125Z 14012KT 34/17 A2982 RMK A01 T03440174  RH  037%=      5-min Rain = 0
KWE1 210126Z 14013KT 34/17 A2982 RMK A01 T03430174  RH  037%=      5-min Rain = 0
KWE1 210127Z 14012KT 34/18 A2982 RMK A01 T03430175  RH  037%=      5-min Rain = 0
KWE1 210128Z 14012KT 34/17 A2982 RMK A01 T03420174  RH  037%=      5-min Rain = 0
KWE1 210129Z 14011KT 34/18 A2982 RMK A01 T03410175  RH  037%=      5-min Rain = 0
KWE1 210130Z 14013KT 34/17 A2982 RMK A01 T03400174  RH  037%=      5-min Rain = 0
KWE1 210131Z 15013KT 34/17 A2982 RMK A01 T03400174  RH  037%=      5-min Rain = 0
KWE1 210132Z 14013KT 34/17 A2982 RMK A01 T03390174  RH  037%=      5-min Rain = 0
KWE1 210133Z 14013KT 34/17 A2982 RMK A01 T03390174  RH  037%=      5-min Rain = 0
KWE1 210134Z 15013KT 34/17 A2982 RMK A01 T03390174  RH  038%=      5-min Rain = 0
KWE1 210135Z 14014KT 34/17 A2982 RMK A01 T03380174  RH  038%=      5-min Rain = 0
KWE1 210136Z 14014KT 34/17 A2982 RMK A01 T03380173  RH  038%=      5-min Rain = 0
KWE1 210137Z 14012KT 34/17 A2982 RMK A01 T03370173  RH  038%=      5-min Rain = 0
KWE1 210138Z 15013KT 34/17 A2982 RMK A01 T03370173  RH  038%=      5-min Rain = 0
KWE1 210139Z 15012KT 34/17 A2982 RMK A01 T03370173  RH  038%=      5-min Rain = 0
KWE1 210140Z 15014KT 34/17 A2982 RMK A01 T03360173  RH  038%=      5-min Rain = 0
KWE1 210141Z 14013KT 34/17 A2982 RMK A01 T03360173  RH  038%=      5-min Rain = 0
KWE1 210142Z 15014KT 34/17 A2982 RMK A01 T03350173  RH  038%=      5-min Rain = 0
KWE1 210143Z 15014G19KT 34/17 A2982 RMK A01 T03350173  RH  038%=      5-min Rain = 0
KWE1 210144Z 15012G17KT 34/17 A2982 RMK A01 T03350173  RH  038%=      5-min Rain = 0
KWE1 210145Z 15014KT 33/17 A2982 RMK A01 T03340173  RH  038%=      5-min Rain = 0
KWE1 210146Z 15013KT 33/17 A2982 RMK A01 T03340173  RH  038%=      5-min Rain = 0
KWE1 210147Z 15013KT 33/17 A2982 RMK A01 T03330173  RH  038%=      5-min Rain = 0
KWE1 210148Z 15014KT 33/17 A2982 RMK A01 T03330173  RH  039%=      5-min Rain = 0
KWE1 210149Z 15013KT 33/17 A2982 RMK A01 T03320173  RH  039%=      5-min Rain = 0
KWE1 210150Z 14011KT 33/17 A2982 RMK A01 T03320173  RH  039%=      5-min Rain = 0
KWE1 210151Z 15012KT 33/17 A2982 RMK A01 T03310173  RH  039%=      5-min Rain = 0
KWE1 210152Z 14010KT 33/17 A2982 RMK A01 T03310173  RH  039%=      5-min Rain = 0
KWE1 210153Z 14012KT 33/17 A2982 RMK A01 T03300173  RH  039%=      5-min Rain = 0
KWE1 210154Z 14010KT 33/17 A2982 RMK A01 T03290173  RH  039%=      5-min Rain = 0
KWE1 210155Z 15011KT 33/17 A2982 RMK A01 T03290173  RH  040%=      5-min Rain = 0
KWE1 210156Z 14011KT 33/17 A2982 RMK A01 T03290174  RH  040%=      5-min Rain = 0
KWE1 210157Z 15009KT 33/17 A2982 RMK A01 T03280174  RH  040%=      5-min Rain = 0
KWE1 210158Z 15011KT 33/17 A2982 RMK A01 T03280174  RH  040%=      5-min Rain = 0
KWE1 210159Z 15011KT 33/17 A2982 RMK A01 T03270174  RH  040%=      5-min Rain = 0
KWE1 210200Z 15012KT 33/17 A2982 RMK A01 T03270174  RH  040%=      5-min Rain = 0
KWE1 210201Z 15013KT 33/18 A2982 RMK A01 T03270175  RH  040%=      5-min Rain = 0
KWE1 210202Z 14011KT 33/18 A2982 RMK A01 T03270175  RH  040%=      5-min Rain = 0
KWE1 210203Z 14012KT 33/18 A2982 RMK A01 T03270175  RH  040%=      5-min Rain = 0
KWE1 210204Z 14014KT 33/18 A2982 RMK A01 T03270175  RH  040%=      5-min Rain = 0
KWE1 210205Z 15015KT 33/18 A2982 RMK A01 T03270175  RH  041%=      5-min Rain = 0
KWE1 210206Z 14012KT 33/18 A2982 RMK A01 T03270175  RH  040%=      5-min Rain = 0
KWE1 210207Z 14012KT 33/18 A2983 RMK A01 T03270176  RH  041%=      5-min Rain = 0
KWE1 210208Z 15012KT 33/18 A2982 RMK A01 T03260176  RH  041%=      5-min Rain = 0
KWE1 210209Z 14012KT 33/18 A2983 RMK A01 T03250176  RH  041%=      5-min Rain = 0
KWE1 210210Z 14013KT 33/18 A2982 RMK A01 T03250176  RH  041%=      5-min Rain = 0
KWE1 210211Z 14013KT 32/18 A2982 RMK A01 T03240176  RH  041%=      5-min Rain = 0
KWE1 210212Z 15010KT 32/18 A2982 RMK A01 T03240176  RH  041%=      5-min Rain = 0
KWE1 210213Z 14012KT 32/18 A2982 RMK A01 T03230176  RH  042%=      5-min Rain = 0
KWE1 210214Z 14011KT 32/18 A2982 RMK A01 T03220176  RH  042%=      5-min Rain = 0
KWE1 210215Z 14011KT 32/18 A2983 RMK A01 T03220176  RH  042%=      5-min Rain = 0
KWE1 210216Z 14012KT 32/18 A2983 RMK A01 T03210177  RH  042%=      5-min Rain = 0
KWE1 210217Z 14010G15KT 32/18 A2983 RMK A01 T03210177  RH  042%=      5-min Rain = 0
KWE1 210218Z 14013KT 32/18 A2983 RMK A01 T03200177  RH  042%=      5-min Rain = 0
KWE1 210219Z 14012KT 32/18 A2983 RMK A01 T03200177  RH  042%=      5-min Rain = 0
KWE1 210220Z 14012KT 32/18 A2983 RMK A01 T03210177  RH  042%=      5-min Rain = 0
KWE1 210221Z 14011KT 32/18 A2983 RMK A01 T03210177  RH  042%=      5-min Rain = 0
KWE1 210222Z 15012KT 32/18 A2983 RMK A01 T03200177  RH  042%=      5-min Rain = 0
KWE1 210223Z 14012KT 32/18 A2983 RMK A01 T03200178  RH  043%=      5-min Rain = 0
KWE1 210224Z 14013KT 32/18 A2983 RMK A01 T03200177  RH  043%=      5-min Rain = 0
KWE1 210225Z 14013KT 32/18 A2983 RMK A01 T03200177  RH  043%=      5-min Rain = 0
KWE1 210226Z 14012KT 32/18 A2983 RMK A01 T03190178  RH  043%=      5-min Rain = 0
KWE1 210227Z 14014KT 32/18 A2983 RMK A01 T03190178  RH  043%=      5-min Rain = 0
KWE1 210228Z 14013KT 32/18 A2983 RMK A01 T03190177  RH  043%=      5-min Rain = 0
KWE1 210229Z 14013KT 32/18 A2983 RMK A01 T03190177  RH  043%=      5-min Rain = 0
KWE1 210230Z 14013KT 32/18 A2983 RMK A01 T03190178  RH  043%=      5-min Rain = 0
KWE1 210231Z 14012KT 32/18 A2983 RMK A01 T03180178  RH  043%=      5-min Rain = 0
KWE1 210232Z 14012KT 32/18 A2983 RMK A01 T03180178  RH  043%=      5-min Rain = 0
KWE1 210233Z 14013KT 32/18 A2983 RMK A01 T03170177  RH  043%=      5-min Rain = 0
KWE1 210234Z 14012KT 32/18 A2983 RMK A01 T03170177  RH  043%=      5-min Rain = 0
KWE1 210235Z 14013KT 32/18 A2983 RMK A01 T03170177  RH  043%=      5-min Rain = 0
KWE1 210236Z 14013KT 32/18 A2983 RMK A01 T03170177  RH  043%=      5-min Rain = 0
KWE1 210237Z 14014KT 32/18 A2983 RMK A01 T03170177  RH  043%=      5-min Rain = 0
KWE1 210238Z 15016KT 32/18 A2983 RMK A01 T03170177  RH  043%=      5-min Rain = 0
KWE1 210239Z 14014KT 32/18 A2983 RMK A01 T03180177  RH  043%=      5-min Rain = 0
KWE1 210240Z 14015KT 32/18 A2983 RMK A01 T03180177  RH  043%=      5-min Rain = 0
KWE1 210241Z 14014KT 32/18 A2983 RMK A01 T03170177  RH  043%=      5-min Rain = 0
KWE1 210242Z 14013KT 32/18 A2983 RMK A01 T03170177  RH  043%=      5-min Rain = 0
KWE1 210243Z 15012KT 32/18 A2983 RMK A01 T03170177  RH  043%=      5-min Rain = 0
KWE1 210244Z 15013KT 32/18 A2983 RMK A01 T03170177  RH  043%=      5-min Rain = 0
KWE1 210245Z 14014KT 32/18 A2983 RMK A01 T03160177  RH  043%=      5-min Rain = 0
KWE1 210246Z 15014KT 32/18 A2983 RMK A01 T03160177  RH  043%=      5-min Rain = 0
KWE1 210247Z 15013KT 32/18 A2983 RMK A01 T03160177  RH  043%=      5-min Rain = 0
KWE1 210248Z 15012KT 32/18 A2984 RMK A01 T03160176  RH  043%=      5-min Rain = 0
KWE1 210249Z 14013KT 32/18 A2984 RMK A01 T03150176  RH  043%=      5-min Rain = 0
KWE1 210250Z 15013KT 32/18 A2984 RMK A01 T03150176  RH  043%=      5-min Rain = 0
KWE1 210251Z 14012KT 32/18 A2984 RMK A01 T03150176  RH  043%=      5-min Rain = 0
KWE1 210252Z 14013KT 32/18 A2984 RMK A01 T03150176  RH  043%=      5-min Rain = 0
KWE1 210253Z 15012KT 32/18 A2984 RMK A01 T03150176  RH  043%=      5-min Rain = 0
KWE1 210254Z 15013KT 31/18 A2984 RMK A01 T03140176  RH  044%=      5-min Rain = 0
KWE1 210255Z 15013KT 31/18 A2984 RMK A01 T03140176  RH  044%=      5-min Rain = 0
KWE1 210256Z 14013KT 31/18 A2984 RMK A01 T03140175  RH  044%=      5-min Rain = 0
KWE1 210257Z 14013KT 31/18 A2984 RMK A01 T03140176  RH  044%=      5-min Rain = 0
KWE1 210258Z 14013KT 31/18 A2984 RMK A01 T03140175  RH  044%=      5-min Rain = 0
KWE1 210259Z 14012KT 31/18 A2984 RMK A01 T03140176  RH  044%=      5-min Rain = 0
KWE1 210300Z 14012KT 31/18 A2984 RMK A01 T03140175  RH  044%=      5-min Rain = 0
KWE1 210301Z 15013KT 31/18 A2984 RMK A01 T03130175  RH  044%=      5-min Rain = 0
KWE1 210302Z 14014KT 31/18 A2985 RMK A01 T03130175  RH  044%=      5-min Rain = 0
KWE1 210303Z 14013KT 31/18 A2985 RMK A01 T03130175  RH  044%=      5-min Rain = 0
KWE1 210304Z 14014KT 31/18 A2985 RMK A01 T03130175  RH  044%=      5-min Rain = 0
KWE1 210305Z 15013KT 31/18 A2985 RMK A01 T03130175  RH  044%=      5-min Rain = 0
KWE1 210306Z 14014KT 31/17 A2985 RMK A01 T03130174  RH  044%=      5-min Rain = 0
KWE1 210307Z 15011KT 31/17 A2985 RMK A01 T03130174  RH  044%=      5-min Rain = 0
KWE1 210308Z 14012KT 31/17 A2985 RMK A01 T03120174  RH  044%=      5-min Rain = 0
KWE1 210309Z 15012KT 31/17 A2985 RMK A01 T03120174  RH  044%=      5-min Rain = 0
KWE1 210310Z 14011KT 31/17 A2985 RMK A01 T03110174  RH  044%=      5-min Rain = 0
KWE1 210311Z 15012KT 31/17 A2985 RMK A01 T03110174  RH  044%=      5-min Rain = 0
KWE1 210312Z 15012G17KT 31/17 A2985 RMK A01 T03110174  RH  044%=      5-min Rain = 0
KWE1 210313Z 15013KT 31/17 A2985 RMK A01 T03110174  RH  044%=      5-min Rain = 0
KWE1 210314Z 15012KT 31/17 A2985 RMK A01 T03110174  RH  044%=      5-min Rain = 0
KWE1 210315Z 15012KT 31/17 A2984 RMK A01 T03100174  RH  044%=      5-min Rain = 0
KWE1 210316Z 15012KT 31/17 A2984 RMK A01 T03100173  RH  044%=      5-min Rain = 0
KWE1 210317Z 15012KT 31/17 A2984 RMK A01 T03100173  RH  044%=      5-min Rain = 0
KWE1 210318Z 14012KT 31/17 A2984 RMK A01 T03100174  RH  044%=      5-min Rain = 0
KWE1 210319Z 14013KT 31/17 A2984 RMK A01 T03090174  RH  044%=      5-min Rain = 0
KWE1 210320Z 15013KT 31/17 A2985 RMK A01 T03090174  RH  044%=      5-min Rain = 0
KWE1 210321Z 15012KT 31/17 A2985 RMK A01 T03090173  RH  044%=      5-min Rain = 0
KWE1 210322Z 15013KT 31/17 A2985 RMK A01 T03080174  RH  044%=      5-min Rain = 0
KWE1 210323Z 14011KT 31/17 A2985 RMK A01 T03080174  RH  045%=      5-min Rain = 0
KWE1 210324Z 14013KT 31/17 A2985 RMK A01 T03080173  RH  045%=      5-min Rain = 0
KWE1 210325Z 15013KT 31/17 A2985 RMK A01 T03080174  RH  045%=      5-min Rain = 0
KWE1 210326Z 15013KT 31/17 A2985 RMK A01 T03070173  RH  045%=      5-min Rain = 0
KWE1 210327Z 15010KT 31/17 A2985 RMK A01 T03080174  RH  045%=      5-min Rain = 0
KWE1 210328Z 15012KT 31/17 A2985 RMK A01 T03070173  RH  045%=      5-min Rain = 0
KWE1 210329Z 14012KT 31/17 A2985 RMK A01 T03060173  RH  045%=      5-min Rain = 0
KWE1 210330Z 15012KT 31/17 A2985 RMK A01 T03060173  RH  045%=      5-min Rain = 0
KWE1 210331Z 15012KT 31/17 A2985 RMK A01 T03060174  RH  045%=      5-min Rain = 0
KWE1 210332Z 15013KT 31/17 A2985 RMK A01 T03050174  RH  045%=      5-min Rain = 0
KWE1 210333Z 14013KT 31/17 A2985 RMK A01 T03050174  RH  045%=      5-min Rain = 0
KWE1 210334Z 15012KT 31/17 A2985 RMK A01 T03050174  RH  045%=      5-min Rain = 0
KWE1 210335Z 14013KT 31/17 A2985 RMK A01 T03050174  RH  045%=      5-min Rain = 0
KWE1 210336Z 15013KT 31/17 A2985 RMK A01 T03050174  RH  045%=      5-min Rain = 0
KWE1 210337Z 15012KT 31/17 A2985 RMK A01 T03050174  RH  045%=      5-min Rain = 0
KWE1 210338Z 14012KT 31/17 A2985 RMK A01 T03050174  RH  045%=      5-min Rain = 0
KWE1 210339Z 15012KT 31/17 A2985 RMK A01 T03050174  RH  045%=      5-min Rain = 0
KWE1 210340Z 15013KT 30/17 A2985 RMK A01 T03040173  RH  045%=      5-min Rain = 0
KWE1 210341Z 15013KT 30/17 A2985 RMK A01 T03040173  RH  045%=      5-min Rain = 0
KWE1 210342Z 15011KT 30/17 A2985 RMK A01 T03040173  RH  046%=      5-min Rain = 0
KWE1 210343Z 15012KT 30/17 A2985 RMK A01 T03040173  RH  046%=      5-min Rain = 0
KWE1 210344Z 15012KT 30/17 A2985 RMK A01 T03030173  RH  046%=      5-min Rain = 0
KWE1 210345Z 15012KT 30/17 A2985 RMK A01 T03030173  RH  046%=      5-min Rain = 0
KWE1 210346Z 15011KT 30/17 A2985 RMK A01 T03030173  RH  046%=      5-min Rain = 0
KWE1 210347Z 15012KT 30/17 A2985 RMK A01 T03030173  RH  046%=      5-min Rain = 0
KWE1 210348Z 15011KT 30/17 A2985 RMK A01 T03030172  RH  046%=      5-min Rain = 0
KWE1 210349Z 15012KT 30/17 A2985 RMK A01 T03020172  RH  046%=      5-min Rain = 0
KWE1 210350Z 15011KT 30/17 A2985 RMK A01 T03020172  RH  046%=      5-min Rain = 0
KWE1 210351Z 15012KT 30/17 A2985 RMK A01 T03020172  RH  046%=      5-min Rain = 0
KWE1 210352Z 15013G18KT 30/17 A2985 RMK A01 T03020172  RH  046%=      5-min Rain = 0
KWE1 210353Z 15012KT 30/17 A2985 RMK A01 T03010172  RH  046%=      5-min Rain = 0
KWE1 210354Z 15011KT 30/17 A2985 RMK A01 T03020172  RH  046%=      5-min Rain = 0
KWE1 210355Z 15012KT 30/17 A2985 RMK A01 T03020172  RH  046%=      5-min Rain = 0
KWE1 210356Z 15012KT 30/17 A2985 RMK A01 T03010171  RH  046%=      5-min Rain = 0
KWE1 210357Z 15012KT 30/17 A2985 RMK A01 T03010171  RH  046%=      5-min Rain = 0
KWE1 210358Z 15013KT 30/17 A2985 RMK A01 T03010171  RH  046%=      5-min Rain = 0
KWE1 210359Z 15011KT 30/17 A2985 RMK A01 T03010171  RH  046%=      5-min Rain = 0
KWE1 210400Z 15011KT 30/17 A2985 RMK A01 T03010172  RH  046%=      5-min Rain = 0
KWE1 210401Z 15014KT 30/17 A2986 RMK A01 T03000171  RH  046%=      5-min Rain = 0
KWE1 210402Z 15011KT 30/17 A2986 RMK A01 T03000171  RH  046%=      5-min Rain = 0
KWE1 210403Z 15016KT 30/17 A2986 RMK A01 T03000171  RH  046%=      5-min Rain = 0
KWE1 210404Z 14012KT 30/17 A2986 RMK A01 T03000170  RH  045%=      5-min Rain = 0
KWE1 210405Z 15011KT 30/17 A2986 RMK A01 T03020171  RH  045%=      5-min Rain = 0
KWE1 210406Z 14010KT 30/17 A2986 RMK A01 T03010171  RH  046%=      5-min Rain = 0
KWE1 210407Z 15012KT 30/17 A2986 RMK A01 T03000171  RH  046%=      5-min Rain = 0
KWE1 210408Z 15010KT 30/17 A2986 RMK A01 T03000171  RH  046%=      5-min Rain = 0
KWE1 210409Z 15011KT 30/17 A2986 RMK A01 T02990171  RH  046%=      5-min Rain = 0
KWE1 210410Z 15011KT 30/17 A2986 RMK A01 T02990171  RH  046%=      5-min Rain = 0
KWE1 210411Z 14011KT 30/17 A2986 RMK A01 T02990171  RH  046%=      5-min Rain = 0
KWE1 210412Z 14012KT 30/17 A2986 RMK A01 T02980171  RH  046%=      5-min Rain = 0
KWE1 210413Z 15011KT 30/17 A2986 RMK A01 T02980171  RH  046%=      5-min Rain = 0
KWE1 210414Z 14011KT 30/17 A2986 RMK A01 T02980171  RH  047%=      5-min Rain = 0
KWE1 210415Z 15011KT 30/17 A2986 RMK A01 T02970171  RH  047%=      5-min Rain = 0
KWE1 210416Z 15012KT 30/17 A2987 RMK A01 T02970171  RH  047%=      5-min Rain = 0
KWE1 210417Z 15013KT 30/17 A2986 RMK A01 T02970171  RH  047%=      5-min Rain = 0
KWE1 210418Z 14013KT 30/17 A2986 RMK A01 T02980170  RH  046%=      5-min Rain = 0
KWE1 210419Z 15013KT 30/17 A2986 RMK A01 T02980171  RH  046%=      5-min Rain = 0
KWE1 210420Z 14011KT 30/17 A2986 RMK A01 T02980171  RH  046%=      5-min Rain = 0
KWE1 210421Z 15011KT 30/17 A2986 RMK A01 T02970171  RH  047%=      5-min Rain = 0
KWE1 210422Z 14012KT 30/17 A2986 RMK A01 T02970171  RH  047%=      5-min Rain = 0
KWE1 210423Z 14012KT 30/17 A2986 RMK A01 T02960171  RH  047%=      5-min Rain = 0
KWE1 210424Z 15011KT 30/17 A2986 RMK A01 T02960171  RH  047%=      5-min Rain = 0
KWE1 210425Z 14013KT 30/17 A2986 RMK A01 T02960171  RH  047%=      5-min Rain = 0
KWE1 210426Z 15014KT 30/17 A2986 RMK A01 T02950171  RH  047%=      5-min Rain = 0
KWE1 210427Z 14012KT 30/17 A2986 RMK A01 T02950171  RH  047%=      5-min Rain = 0
KWE1 210428Z 14012KT 30/17 A2986 RMK A01 T02960171  RH  047%=      5-min Rain = 0
KWE1 210429Z 14012KT 30/17 A2986 RMK A01 T02950172  RH  047%=      5-min Rain = 0
KWE1 210430Z 15011KT 29/17 A2986 RMK A01 T02940171  RH  047%=      5-min Rain = 0
KWE1 210431Z 15011KT 29/17 A2986 RMK A01 T02940171  RH  048%=      5-min Rain = 0
KWE1 210432Z 15010KT 29/17 A2986 RMK A01 T02930171  RH  048%=      5-min Rain = 0
KWE1 210433Z 15012KT 29/17 A2987 RMK A01 T02930171  RH  048%=      5-min Rain = 0
KWE1 210434Z 14011KT 29/17 A2986 RMK A01 T02930171  RH  048%=      5-min Rain = 0
KWE1 210435Z 15011KT 29/17 A2987 RMK A01 T02930172  RH  048%=      5-min Rain = 0
KWE1 210436Z 15013KT 29/17 A2986 RMK A01 T02920171  RH  048%=      5-min Rain = 0
KWE1 210437Z 15014KT 29/17 A2986 RMK A01 T02930171  RH  048%=      5-min Rain = 0
KWE1 210438Z 15013KT 29/17 A2986 RMK A01 T02940170  RH  047%=      5-min Rain = 0
KWE1 210439Z 15013G18KT 29/17 A2986 RMK A01 T02940170  RH  047%=      5-min Rain = 0
KWE1 210440Z 15013KT 29/17 A2986 RMK A01 T02940171  RH  048%=      5-min Rain = 0
KWE1 210441Z 15012KT 29/17 A2986 RMK A01 T02940171  RH  047%=      5-min Rain = 0
KWE1 210442Z 15012KT 29/17 A2987 RMK A01 T02940171  RH  048%=      5-min Rain = 0
KWE1 210443Z 15012KT 29/17 A2987 RMK A01 T02940170  RH  047%=      5-min Rain = 0
KWE1 210444Z 15012KT 29/17 A2987 RMK A01 T02940171  RH  047%=      5-min Rain = 0
KWE1 210445Z 15014KT 29/17 A2987 RMK A01 T02930170  RH  048%=      5-min Rain = 0
KWE1 210446Z 16012KT 29/17 A2987 RMK A01 T02930170  RH  047%=      5-min Rain = 0
KWE1 210447Z 15012KT 29/17 A2987 RMK A01 T02930170  RH  047%=      5-min Rain = 0
KWE1 210448Z 16011KT 29/17 A2987 RMK A01 T02930170  RH  048%=      5-min Rain = 0
KWE1 210449Z 15011KT 29/17 A2987 RMK A01 T02930170  RH  048%=      5-min Rain = 0
KWE1 210450Z 16012KT 29/17 A2987 RMK A01 T02920170  RH  048%=      5-min Rain = 0
KWE1 210451Z 16012KT 29/17 A2987 RMK A01 T02920170  RH  048%=      5-min Rain = 0
KWE1 210452Z 15014KT 29/17 A2987 RMK A01 T02920170  RH  048%=      5-min Rain = 0
KWE1 210453Z 15012KT 29/17 A2987 RMK A01 T02920170  RH  048%=      5-min Rain = 0
KWE1 210454Z 16011KT 29/17 A2987 RMK A01 T02920170  RH  048%=      5-min Rain = 0
KWE1 210455Z 15011KT 29/17 A2987 RMK A01 T02920170  RH  048%=      5-min Rain = 0
KWE1 210456Z 15011KT 29/17 A2987 RMK A01 T02920170  RH  048%=      5-min Rain = 0
KWE1 210457Z 16011KT 29/17 A2987 RMK A01 T02910169  RH  048%=      5-min Rain = 0
KWE1 210458Z 16011KT 29/17 A2987 RMK A01 T02900169  RH  048%=      5-min Rain = 0
KWE1 210459Z 16013KT 29/17 A2987 RMK A01 T02900169  RH  048%=      5-min Rain = 0

Page generated in 0.072 seconds.